<?xml version="1.0" encoding="UTF-8" standalone="no" ?>
<gpx xmlns="http://www.topografix.com/GPX/1/1" xmlns:xsi="http://www.w3.org/2001/XMLSchema-instance" xsi:schemaLocation="http://www.topografix.com/GPX/1/1 http://www.topografix.com/GPX/1/1/gpx.xsd" version="1.1" creator="VisuGPX - https://www.visugpx.com">
  <metadata>
    <name>La Ciotat - Cap Canaille</name>
    <desc><![CDATA[Jusqu'au point 1, tracé facile et agréable.
A partir du point 1 et jusqu'à la route des crêtes, le chemin est plus difficile (plus raide, plus étroit, sablonneux et avec des ornières).
Après avoir quitté la route des crêtes, la descente par le DFCI-CQ-117 est assez facile, agréable à l'ombre des pins jusqu'à la D559.
Le retour par le DFCI-CQ-118 puis le chemin de Saint-Loup ne présente pas de difficulté.]]></desc>
  </metadata>
  <wpt lat="43.19662" lon="5.573">
    <ele>148.9</ele>
    <name><![CDATA[Point 1]]></name>
  </wpt>
  <trk>
    <name><![CDATA[La Ciotat - Cap Canaille]]></name>
    <extensions>
      <line xmlns="http://www.topografix.com/GPX/gpx_style/0/2">
        <color>0000FF</color>
        <opacity>1</opacity>
        <width>4</width>
      </line>
    </extensions>
    <trkseg>
      <trkpt lat="43.18268" lon="5.60535">
        <ele>28.5</ele>
        <time>2022-09-10T09:16:16.000Z</time>
      </trkpt>
      <trkpt lat="43.18255" lon="5.6051">
        <ele>27.9</ele>
        <time>2022-09-10T09:16:59.000Z</time>
      </trkpt>
      <trkpt lat="43.18291" lon="5.60249">
        <ele>31</ele>
        <time>2022-09-10T09:17:04.000Z</time>
      </trkpt>
      <trkpt lat="43.18347" lon="5.60263">
        <ele>32.3</ele>
      </trkpt>
      <trkpt lat="43.18366" lon="5.60073">
        <ele>35.6</ele>
      </trkpt>
      <trkpt lat="43.18385" lon="5.60011">
        <ele>37.3</ele>
      </trkpt>
      <trkpt lat="43.18424" lon="5.59958">
        <ele>38.3</ele>
      </trkpt>
      <trkpt lat="43.18437" lon="5.59946">
        <ele>38.9</ele>
      </trkpt>
      <trkpt lat="43.18432" lon="5.59922">
        <ele>39.4</ele>
      </trkpt>
      <trkpt lat="43.18419" lon="5.59918">
        <ele>39.9</ele>
      </trkpt>
      <trkpt lat="43.18406" lon="5.59901">
        <ele>41.7</ele>
        <time>2022-09-10T09:30:43.000Z</time>
      </trkpt>
      <trkpt lat="43.18398" lon="5.59895">
        <ele>42.3</ele>
        <time>2022-09-10T09:30:47.000Z</time>
      </trkpt>
      <trkpt lat="43.18373" lon="5.59884">
        <ele>43</ele>
      </trkpt>
      <trkpt lat="43.18343" lon="5.59865">
        <ele>44.6</ele>
        <time>2022-09-10T09:30:54.000Z</time>
      </trkpt>
      <trkpt lat="43.18335" lon="5.59852">
        <ele>46</ele>
        <time>2022-09-10T09:31:04.000Z</time>
      </trkpt>
      <trkpt lat="43.18304" lon="5.59787">
        <ele>52.3</ele>
        <time>2022-09-10T09:31:16.000Z</time>
      </trkpt>
      <trkpt lat="43.18312" lon="5.59768">
        <ele>53.1</ele>
      </trkpt>
      <trkpt lat="43.18328" lon="5.59755">
        <ele>53.7</ele>
        <time>2022-09-10T09:31:21.000Z</time>
      </trkpt>
      <trkpt lat="43.18348" lon="5.59754">
        <ele>55.3</ele>
        <time>2022-09-10T09:31:26.000Z</time>
      </trkpt>
      <trkpt lat="43.18389" lon="5.59761">
        <ele>54</ele>
        <time>2022-09-10T09:31:36.000Z</time>
      </trkpt>
      <trkpt lat="43.18401" lon="5.59753">
        <ele>51.8</ele>
        <time>2022-09-10T09:31:40.000Z</time>
      </trkpt>
      <trkpt lat="43.18405" lon="5.59739">
        <ele>50.5</ele>
        <time>2022-09-10T09:31:44.000Z</time>
      </trkpt>
      <trkpt lat="43.18406" lon="5.59713">
        <ele>49.5</ele>
      </trkpt>
      <trkpt lat="43.18412" lon="5.59692">
        <ele>49.2</ele>
      </trkpt>
      <trkpt lat="43.18421" lon="5.59678">
        <ele>53.31</ele>
        <time>2022-09-10T09:31:48.000Z</time>
      </trkpt>
      <trkpt lat="43.18473" lon="5.59643">
        <ele>45.4</ele>
        <time>2022-09-10T09:31:57.000Z</time>
      </trkpt>
      <trkpt lat="43.18495" lon="5.59611">
        <ele>44.6</ele>
        <time>2022-09-10T09:32:00.000Z</time>
      </trkpt>
      <trkpt lat="43.18509" lon="5.59588">
        <ele>45.4</ele>
        <time>2022-09-10T09:32:03.000Z</time>
      </trkpt>
      <trkpt lat="43.18524" lon="5.5957">
        <ele>49.92</ele>
        <time>2022-09-10T09:32:06.000Z</time>
      </trkpt>
      <trkpt lat="43.18543" lon="5.59553">
        <ele>49.44</ele>
        <time>2022-09-10T09:32:10.000Z</time>
      </trkpt>
      <trkpt lat="43.18562" lon="5.59535">
        <ele>45.85</ele>
        <time>2022-09-10T09:32:13.000Z</time>
      </trkpt>
      <trkpt lat="43.18582" lon="5.59524">
        <ele>46</ele>
        <time>2022-09-10T09:32:18.000Z</time>
      </trkpt>
      <trkpt lat="43.18601" lon="5.59515">
        <ele>48.83</ele>
        <time>2022-09-10T09:32:22.000Z</time>
      </trkpt>
      <trkpt lat="43.18617" lon="5.59504">
        <ele>47.44</ele>
        <time>2022-09-10T09:32:26.000Z</time>
      </trkpt>
      <trkpt lat="43.18638" lon="5.59488">
        <ele>43.92</ele>
        <time>2022-09-10T09:32:31.000Z</time>
      </trkpt>
      <trkpt lat="43.18656" lon="5.59475">
        <ele>46.07</ele>
        <time>2022-09-10T09:32:35.000Z</time>
      </trkpt>
      <trkpt lat="43.18664" lon="5.59456">
        <ele>48.7</ele>
        <time>2022-09-10T09:32:39.000Z</time>
      </trkpt>
      <trkpt lat="43.18666" lon="5.594">
        <ele>48.7</ele>
        <time>2022-09-10T09:32:47.000Z</time>
      </trkpt>
      <trkpt lat="43.18677" lon="5.59374">
        <ele>51.6</ele>
        <time>2022-09-10T09:32:52.000Z</time>
      </trkpt>
      <trkpt lat="43.18703" lon="5.59358">
        <ele>51.7</ele>
        <time>2022-09-10T09:32:59.000Z</time>
      </trkpt>
      <trkpt lat="43.18715" lon="5.59348">
        <ele>52.8</ele>
        <time>2022-09-10T09:33:03.000Z</time>
      </trkpt>
      <trkpt lat="43.18736" lon="5.59315">
        <ele>54.2</ele>
        <time>2022-09-10T09:33:07.000Z</time>
      </trkpt>
      <trkpt lat="43.1875" lon="5.59277">
        <ele>53.4</ele>
        <time>2022-09-10T09:33:11.000Z</time>
      </trkpt>
      <trkpt lat="43.18768" lon="5.59256">
        <ele>56.6</ele>
        <time>2022-09-10T09:33:15.000Z</time>
      </trkpt>
      <trkpt lat="43.18845" lon="5.59216">
        <ele>57.8</ele>
        <time>2022-09-10T09:33:27.000Z</time>
      </trkpt>
      <trkpt lat="43.18874" lon="5.59193">
        <ele>59.6</ele>
        <time>2022-09-10T09:33:40.000Z</time>
      </trkpt>
      <trkpt lat="43.18904" lon="5.59154">
        <ele>62.6</ele>
        <time>2022-09-10T09:33:43.000Z</time>
      </trkpt>
      <trkpt lat="43.18915" lon="5.59132">
        <ele>61.1</ele>
        <time>2022-09-10T09:33:51.000Z</time>
      </trkpt>
      <trkpt lat="43.18929" lon="5.59097">
        <ele>64.9</ele>
        <time>2022-09-10T09:33:57.000Z</time>
      </trkpt>
      <trkpt lat="43.18936" lon="5.59095">
        <ele>64.9</ele>
        <time>2022-09-10T09:34:00.000Z</time>
      </trkpt>
      <trkpt lat="43.18951" lon="5.59051">
        <ele>63.7</ele>
        <time>2022-09-10T09:34:04.000Z</time>
      </trkpt>
      <trkpt lat="43.18966" lon="5.59032">
        <ele>65</ele>
        <time>2022-09-10T09:34:09.000Z</time>
      </trkpt>
      <trkpt lat="43.1903" lon="5.59006">
        <ele>69</ele>
      </trkpt>
      <trkpt lat="43.19037" lon="5.58998">
        <ele>69.4</ele>
        <time>2022-09-10T09:34:25.000Z</time>
      </trkpt>
      <trkpt lat="43.1906" lon="5.58959">
        <ele>71.4</ele>
        <time>2022-09-10T09:34:29.000Z</time>
      </trkpt>
      <trkpt lat="43.19112" lon="5.58929">
        <ele>73.5</ele>
        <time>2022-09-10T09:34:40.000Z</time>
      </trkpt>
      <trkpt lat="43.19124" lon="5.5893">
        <ele>73.9</ele>
        <time>2022-09-10T09:34:44.000Z</time>
      </trkpt>
      <trkpt lat="43.19141" lon="5.58946">
        <ele>70.1</ele>
        <time>2022-09-10T09:34:49.000Z</time>
      </trkpt>
      <trkpt lat="43.19151" lon="5.58949">
        <ele>72.4</ele>
      </trkpt>
      <trkpt lat="43.19162" lon="5.58942">
        <ele>71.8</ele>
        <time>2022-09-10T09:34:53.000Z</time>
      </trkpt>
      <trkpt lat="43.19172" lon="5.58926">
        <ele>75.3</ele>
      </trkpt>
      <trkpt lat="43.19185" lon="5.58889">
        <ele>77.4</ele>
        <time>2022-09-10T09:34:57.000Z</time>
      </trkpt>
      <trkpt lat="43.19185" lon="5.58877">
        <ele>77.1</ele>
        <time>2022-09-10T09:35:01.000Z</time>
      </trkpt>
      <trkpt lat="43.19179" lon="5.58852">
        <ele>77.7</ele>
        <time>2022-09-10T09:35:06.000Z</time>
      </trkpt>
      <trkpt lat="43.19183" lon="5.58842">
        <ele>77.5</ele>
        <time>2022-09-10T09:35:10.000Z</time>
      </trkpt>
      <trkpt lat="43.19203" lon="5.58812">
        <ele>80.5</ele>
        <time>2022-09-10T09:35:15.000Z</time>
      </trkpt>
      <trkpt lat="43.19206" lon="5.58801">
        <ele>81.2</ele>
      </trkpt>
      <trkpt lat="43.19207" lon="5.58791">
        <ele>81.7</ele>
      </trkpt>
      <trkpt lat="43.19209" lon="5.58755">
        <ele>82.3</ele>
        <time>2022-09-10T09:35:19.000Z</time>
      </trkpt>
      <trkpt lat="43.19213" lon="5.58734">
        <ele>80.4</ele>
      </trkpt>
      <trkpt lat="43.19228" lon="5.58717">
        <ele>79</ele>
        <time>2022-09-10T09:35:28.000Z</time>
      </trkpt>
      <trkpt lat="43.19265" lon="5.58704">
        <ele>81.9</ele>
        <time>2022-09-10T09:35:32.000Z</time>
      </trkpt>
      <trkpt lat="43.19284" lon="5.58687">
        <ele>82.6</ele>
        <time>2022-09-10T09:35:40.000Z</time>
      </trkpt>
      <trkpt lat="43.1932" lon="5.58607">
        <ele>88.8</ele>
        <time>2022-09-10T09:35:56.000Z</time>
      </trkpt>
      <trkpt lat="43.19324" lon="5.58586">
        <ele>88.7</ele>
        <time>2022-09-10T09:36:01.000Z</time>
      </trkpt>
      <trkpt lat="43.19321" lon="5.58558">
        <ele>92.4</ele>
        <time>2022-09-10T09:36:05.000Z</time>
      </trkpt>
      <trkpt lat="43.19323" lon="5.58526">
        <ele>92.1</ele>
        <time>2022-09-10T09:36:09.000Z</time>
      </trkpt>
      <trkpt lat="43.19319" lon="5.585">
        <ele>91.9</ele>
        <time>2022-09-10T09:36:13.000Z</time>
      </trkpt>
      <trkpt lat="43.19308" lon="5.58474">
        <ele>88.3</ele>
        <time>2022-09-10T09:36:17.000Z</time>
      </trkpt>
      <trkpt lat="43.19284" lon="5.58438">
        <ele>90.9</ele>
        <time>2022-09-10T09:36:21.000Z</time>
      </trkpt>
      <trkpt lat="43.19278" lon="5.58425">
        <ele>90.7</ele>
        <time>2022-09-10T09:36:29.000Z</time>
      </trkpt>
      <trkpt lat="43.19276" lon="5.58354">
        <ele>91.6</ele>
        <time>2022-09-10T09:36:37.000Z</time>
      </trkpt>
      <trkpt lat="43.19272" lon="5.58301">
        <ele>95.6</ele>
        <time>2022-09-10T09:36:46.000Z</time>
      </trkpt>
      <trkpt lat="43.19275" lon="5.58283">
        <ele>94.6</ele>
        <time>2022-09-10T09:36:51.000Z</time>
      </trkpt>
      <trkpt lat="43.19282" lon="5.58273">
        <ele>95.3</ele>
        <time>2022-09-10T09:36:54.000Z</time>
      </trkpt>
      <trkpt lat="43.19301" lon="5.58255">
        <ele>96.8</ele>
        <time>2022-09-10T09:36:58.000Z</time>
      </trkpt>
      <trkpt lat="43.19309" lon="5.58243">
        <ele>96.4</ele>
      </trkpt>
      <trkpt lat="43.19315" lon="5.58219">
        <ele>98.8</ele>
        <time>2022-09-10T09:37:02.000Z</time>
      </trkpt>
      <trkpt lat="43.19315" lon="5.58198">
        <ele>99.4</ele>
        <time>2022-09-10T09:37:06.000Z</time>
      </trkpt>
      <trkpt lat="43.1931" lon="5.58175">
        <ele>98.6</ele>
        <time>2022-09-10T09:37:10.000Z</time>
      </trkpt>
      <trkpt lat="43.19299" lon="5.58148">
        <ele>100.9</ele>
        <time>2022-09-10T09:37:15.000Z</time>
      </trkpt>
      <trkpt lat="43.19281" lon="5.58129">
        <ele>100.1</ele>
        <time>2022-09-10T09:37:21.000Z</time>
      </trkpt>
      <trkpt lat="43.19285" lon="5.58103">
        <ele>103.5</ele>
        <time>2022-09-10T09:37:40.000Z</time>
      </trkpt>
      <trkpt lat="43.19288" lon="5.58085">
        <ele>106</ele>
        <time>2022-09-10T09:37:50.000Z</time>
      </trkpt>
      <trkpt lat="43.19287" lon="5.5807">
        <ele>106.7</ele>
        <time>2022-09-10T09:37:56.000Z</time>
      </trkpt>
      <trkpt lat="43.19277" lon="5.58043">
        <ele>104.2</ele>
      </trkpt>
      <trkpt lat="43.19273" lon="5.58027">
        <ele>106.5</ele>
        <time>2022-09-10T09:38:02.000Z</time>
      </trkpt>
      <trkpt lat="43.19278" lon="5.58019">
        <ele>106.4</ele>
        <time>2022-09-10T09:38:08.000Z</time>
      </trkpt>
      <trkpt lat="43.19285" lon="5.58014">
        <ele>107.5</ele>
      </trkpt>
      <trkpt lat="43.19306" lon="5.58011">
        <ele>109</ele>
        <time>2022-09-10T09:38:14.000Z</time>
      </trkpt>
      <trkpt lat="43.19318" lon="5.58">
        <ele>111.9</ele>
        <time>2022-09-10T09:38:20.000Z</time>
      </trkpt>
      <trkpt lat="43.19321" lon="5.57974">
        <ele>115.7</ele>
        <time>2022-09-10T09:38:26.000Z</time>
      </trkpt>
      <trkpt lat="43.1933" lon="5.57944">
        <ele>114.1</ele>
        <time>2022-09-10T09:38:32.000Z</time>
      </trkpt>
      <trkpt lat="43.19328" lon="5.57852">
        <ele>118.6</ele>
        <time>2022-09-10T09:38:47.000Z</time>
      </trkpt>
      <trkpt lat="43.19339" lon="5.57773">
        <ele>123</ele>
        <time>2022-09-10T09:39:02.000Z</time>
      </trkpt>
      <trkpt lat="43.19347" lon="5.57741">
        <ele>125</ele>
        <time>2022-09-10T09:39:07.000Z</time>
      </trkpt>
      <trkpt lat="43.19377" lon="5.57688">
        <ele>126.2</ele>
        <time>2022-09-10T09:39:22.000Z</time>
      </trkpt>
      <trkpt lat="43.19393" lon="5.5763">
        <ele>127.3</ele>
        <time>2022-09-10T09:39:27.000Z</time>
      </trkpt>
      <trkpt lat="43.19447" lon="5.57608">
        <ele>128</ele>
        <time>2022-09-10T09:39:47.000Z</time>
      </trkpt>
      <trkpt lat="43.19592" lon="5.57457">
        <ele>141.1</ele>
        <time>2022-09-10T09:40:38.000Z</time>
      </trkpt>
      <trkpt lat="43.19604" lon="5.57428">
        <ele>141.7</ele>
        <time>2022-09-10T09:40:43.000Z</time>
      </trkpt>
      <trkpt lat="43.19638" lon="5.57385">
        <ele>142.4</ele>
        <time>2022-09-10T09:40:59.000Z</time>
      </trkpt>
      <trkpt lat="43.19637" lon="5.57348">
        <ele>144.5</ele>
        <time>2022-09-10T09:41:04.000Z</time>
      </trkpt>
      <trkpt lat="43.19641" lon="5.57328">
        <ele>146</ele>
        <time>2022-09-10T09:41:10.000Z</time>
      </trkpt>
      <trkpt lat="43.1966" lon="5.57317">
        <ele>149.9</ele>
        <time>2022-09-10T09:41:16.000Z</time>
      </trkpt>
      <trkpt lat="43.19662" lon="5.57303">
        <ele>148.7</ele>
        <time>2022-09-10T09:41:37.000Z</time>
      </trkpt>
      <trkpt lat="43.19634" lon="5.57313">
        <ele>151.3</ele>
        <time>2022-09-10T09:41:44.000Z</time>
      </trkpt>
      <trkpt lat="43.19618" lon="5.57329">
        <ele>154</ele>
        <time>2022-09-10T09:41:51.000Z</time>
      </trkpt>
      <trkpt lat="43.19602" lon="5.57368">
        <ele>154.1</ele>
        <time>2022-09-10T09:42:05.000Z</time>
      </trkpt>
      <trkpt lat="43.19576" lon="5.57383">
        <ele>157.2</ele>
        <time>2022-09-10T09:42:12.000Z</time>
      </trkpt>
      <trkpt lat="43.19563" lon="5.57386">
        <ele>158.1</ele>
        <time>2022-09-10T09:42:19.000Z</time>
      </trkpt>
      <trkpt lat="43.19539" lon="5.57365">
        <ele>164.6</ele>
        <time>2022-09-10T09:42:33.000Z</time>
      </trkpt>
      <trkpt lat="43.19528" lon="5.57369">
        <ele>163.3</ele>
        <time>2022-09-10T09:42:40.000Z</time>
      </trkpt>
      <trkpt lat="43.19499" lon="5.57404">
        <ele>166.6</ele>
        <time>2022-09-10T09:42:47.000Z</time>
      </trkpt>
      <trkpt lat="43.19458" lon="5.57427">
        <ele>170.8</ele>
        <time>2022-09-10T09:43:07.000Z</time>
      </trkpt>
      <trkpt lat="43.19406" lon="5.57428">
        <ele>177.1</ele>
        <time>2022-09-10T09:43:21.000Z</time>
      </trkpt>
      <trkpt lat="43.19387" lon="5.57439">
        <ele>178.5</ele>
        <time>2022-09-10T09:43:27.000Z</time>
      </trkpt>
      <trkpt lat="43.19348" lon="5.57473">
        <ele>180.2</ele>
        <time>2022-09-10T09:43:46.000Z</time>
      </trkpt>
      <trkpt lat="43.19339" lon="5.57476">
        <ele>180.8</ele>
      </trkpt>
      <trkpt lat="43.19332" lon="5.57473">
        <ele>181.7</ele>
      </trkpt>
      <trkpt lat="43.19328" lon="5.5746">
        <ele>181.42</ele>
        <time>2022-09-10T09:43:55.000Z</time>
      </trkpt>
      <trkpt lat="43.19333" lon="5.57411">
        <ele>187.3</ele>
        <time>2022-09-10T09:44:08.000Z</time>
      </trkpt>
      <trkpt lat="43.19333" lon="5.57364">
        <ele>189.9</ele>
        <time>2022-09-10T09:44:23.000Z</time>
      </trkpt>
      <trkpt lat="43.19358" lon="5.57301">
        <ele>196.3</ele>
        <time>2022-09-10T09:44:47.000Z</time>
      </trkpt>
      <trkpt lat="43.19386" lon="5.57257">
        <ele>201.3</ele>
      </trkpt>
      <trkpt lat="43.1941" lon="5.5721">
        <ele>204.7</ele>
        <time>2022-09-10T09:45:18.000Z</time>
      </trkpt>
      <trkpt lat="43.19444" lon="5.57192">
        <ele>208.3</ele>
        <time>2022-09-10T09:45:35.000Z</time>
      </trkpt>
      <trkpt lat="43.1949" lon="5.57183">
        <ele>210.7</ele>
        <time>2022-09-10T09:45:51.000Z</time>
      </trkpt>
      <trkpt lat="43.19505" lon="5.57177">
        <ele>211.8</ele>
        <time>2022-09-10T09:45:58.000Z</time>
      </trkpt>
      <trkpt lat="43.19554" lon="5.57112">
        <ele>218.6</ele>
        <time>2022-09-10T09:46:28.000Z</time>
      </trkpt>
      <trkpt lat="43.19589" lon="5.57035">
        <ele>222.3</ele>
        <time>2022-09-10T09:47:00.000Z</time>
      </trkpt>
      <trkpt lat="43.19607" lon="5.56987">
        <ele>225.9</ele>
      </trkpt>
      <trkpt lat="43.19623" lon="5.56934">
        <ele>229.5</ele>
        <time>2022-09-10T09:47:22.000Z</time>
      </trkpt>
      <trkpt lat="43.19666" lon="5.56848">
        <ele>240.3</ele>
        <time>2022-09-10T09:47:55.000Z</time>
      </trkpt>
      <trkpt lat="43.19669" lon="5.56834">
        <ele>241.9</ele>
        <time>2022-09-10T09:48:03.000Z</time>
      </trkpt>
      <trkpt lat="43.19671" lon="5.56795">
        <ele>245.8</ele>
        <time>2022-09-10T09:48:11.000Z</time>
      </trkpt>
      <trkpt lat="43.19681" lon="5.56784">
        <ele>247.9</ele>
        <time>2022-09-10T09:48:20.000Z</time>
      </trkpt>
      <trkpt lat="43.19703" lon="5.56774">
        <ele>251.2</ele>
        <time>2022-09-10T09:52:28.000Z</time>
      </trkpt>
      <trkpt lat="43.19708" lon="5.56772">
        <ele>251.5</ele>
        <time>2022-09-10T09:52:36.000Z</time>
      </trkpt>
      <trkpt lat="43.19781" lon="5.56712">
        <ele>260.1</ele>
        <time>2022-09-10T09:53:04.000Z</time>
      </trkpt>
      <trkpt lat="43.19804" lon="5.56684">
        <ele>262.5</ele>
        <time>2022-09-10T09:53:22.000Z</time>
      </trkpt>
      <trkpt lat="43.1981" lon="5.5666">
        <ele>264.6</ele>
        <time>2022-09-10T09:53:29.000Z</time>
      </trkpt>
      <trkpt lat="43.19806" lon="5.56608">
        <ele>269.1</ele>
      </trkpt>
      <trkpt lat="43.19799" lon="5.56547">
        <ele>273</ele>
        <time>2022-09-10T09:53:56.000Z</time>
      </trkpt>
      <trkpt lat="43.19758" lon="5.56419">
        <ele>283.02</ele>
        <time>2022-09-10T09:54:31.000Z</time>
      </trkpt>
      <trkpt lat="43.19755" lon="5.56389">
        <ele>279.8</ele>
        <time>2022-09-10T09:54:38.000Z</time>
      </trkpt>
      <trkpt lat="43.19756" lon="5.56313">
        <ele>284.2</ele>
        <time>2022-09-10T09:55:02.000Z</time>
      </trkpt>
      <trkpt lat="43.19766" lon="5.56292">
        <ele>285.7</ele>
        <time>2022-09-10T09:55:09.000Z</time>
      </trkpt>
      <trkpt lat="43.19795" lon="5.56265">
        <ele>288.8</ele>
        <time>2022-09-10T09:55:23.000Z</time>
      </trkpt>
      <trkpt lat="43.1983" lon="5.56214">
        <ele>291.9</ele>
        <time>2022-09-10T09:55:30.000Z</time>
      </trkpt>
      <trkpt lat="43.1984" lon="5.56201">
        <ele>291.5</ele>
        <time>2022-09-10T09:55:45.000Z</time>
      </trkpt>
      <trkpt lat="43.19842" lon="5.56186">
        <ele>292</ele>
        <time>2022-09-10T09:55:53.000Z</time>
      </trkpt>
      <trkpt lat="43.19835" lon="5.56091">
        <ele>293.4</ele>
        <time>2022-09-10T09:56:14.000Z</time>
      </trkpt>
      <trkpt lat="43.19835" lon="5.55968">
        <ele>297.7</ele>
        <time>2022-09-10T09:56:46.000Z</time>
      </trkpt>
      <trkpt lat="43.19841" lon="5.55889">
        <ele>301.7</ele>
      </trkpt>
      <trkpt lat="43.19827" lon="5.55816">
        <ele>303.2</ele>
        <time>2022-09-10T09:57:21.000Z</time>
      </trkpt>
      <trkpt lat="43.1982" lon="5.55767">
        <ele>304.3</ele>
        <time>2022-09-10T09:57:27.000Z</time>
      </trkpt>
      <trkpt lat="43.19818" lon="5.55727">
        <ele>304.1</ele>
        <time>2022-09-10T09:57:39.000Z</time>
      </trkpt>
      <trkpt lat="43.19811" lon="5.55693">
        <ele>303</ele>
        <time>2022-09-10T09:57:45.000Z</time>
      </trkpt>
      <trkpt lat="43.19773" lon="5.5564">
        <ele>302.7</ele>
      </trkpt>
      <trkpt lat="43.1976" lon="5.55612">
        <ele>302</ele>
        <time>2022-09-10T09:58:33.000Z</time>
      </trkpt>
      <trkpt lat="43.19753" lon="5.55569">
        <ele>301.1</ele>
        <time>2022-09-10T09:58:37.000Z</time>
      </trkpt>
      <trkpt lat="43.1975" lon="5.55535">
        <ele>301.9</ele>
        <time>2022-09-10T09:58:46.000Z</time>
      </trkpt>
      <trkpt lat="43.19754" lon="5.5548">
        <ele>301.5</ele>
        <time>2022-09-10T09:58:57.000Z</time>
      </trkpt>
      <trkpt lat="43.19751" lon="5.55466">
        <ele>302.5</ele>
        <time>2022-09-10T09:59:02.000Z</time>
      </trkpt>
      <trkpt lat="43.19742" lon="5.5543">
        <ele>306.3</ele>
        <time>2022-09-10T09:59:08.000Z</time>
      </trkpt>
      <trkpt lat="43.19712" lon="5.55348">
        <ele>309.3</ele>
        <time>2022-09-10T09:59:15.000Z</time>
      </trkpt>
      <trkpt lat="43.19706" lon="5.55311">
        <ele>310.6</ele>
        <time>2022-09-10T09:59:24.000Z</time>
      </trkpt>
      <trkpt lat="43.19699" lon="5.55298">
        <ele>311.4</ele>
        <time>2022-09-10T09:59:54.000Z</time>
      </trkpt>
      <trkpt lat="43.19707" lon="5.55291">
        <ele>311.1</ele>
        <time>2022-09-10T10:00:26.000Z</time>
      </trkpt>
      <trkpt lat="43.19721" lon="5.55285">
        <ele>311.3</ele>
      </trkpt>
      <trkpt lat="43.19733" lon="5.55284">
        <ele>311.6</ele>
        <time>2022-09-10T10:00:31.000Z</time>
      </trkpt>
      <trkpt lat="43.19759" lon="5.55287">
        <ele>317.1</ele>
        <time>2022-09-10T10:00:36.000Z</time>
      </trkpt>
      <trkpt lat="43.19799" lon="5.55294">
        <ele>315</ele>
        <time>2022-09-10T10:00:47.000Z</time>
      </trkpt>
      <trkpt lat="43.19819" lon="5.553">
        <ele>316.8</ele>
        <time>2022-09-10T10:00:57.000Z</time>
      </trkpt>
      <trkpt lat="43.19836" lon="5.55308">
        <ele>318.3</ele>
      </trkpt>
      <trkpt lat="43.19852" lon="5.55319">
        <ele>323.57</ele>
        <time>2022-09-10T10:01:02.000Z</time>
      </trkpt>
      <trkpt lat="43.19871" lon="5.5533">
        <ele>322.2</ele>
        <time>2022-09-10T10:01:07.000Z</time>
      </trkpt>
      <trkpt lat="43.19893" lon="5.55335">
        <ele>325.3</ele>
        <time>2022-09-10T10:01:12.000Z</time>
      </trkpt>
      <trkpt lat="43.19912" lon="5.55337">
        <ele>331.21</ele>
        <time>2022-09-10T10:01:17.000Z</time>
      </trkpt>
      <trkpt lat="43.1992" lon="5.55342">
        <ele>328.8</ele>
        <time>2022-09-10T10:01:24.000Z</time>
      </trkpt>
      <trkpt lat="43.19928" lon="5.55347">
        <ele>335.69</ele>
        <time>2022-09-10T10:07:28.000Z</time>
      </trkpt>
      <trkpt lat="43.19938" lon="5.55369">
        <ele>337.19</ele>
        <time>2022-09-10T10:07:35.000Z</time>
      </trkpt>
      <trkpt lat="43.20012" lon="5.55445">
        <ele>343.92</ele>
        <time>2022-09-10T10:08:05.000Z</time>
      </trkpt>
      <trkpt lat="43.20029" lon="5.55457">
        <ele>345.11</ele>
        <time>2022-09-10T10:08:11.000Z</time>
      </trkpt>
      <trkpt lat="43.20047" lon="5.55471">
        <ele>347.12</ele>
        <time>2022-09-10T10:08:18.000Z</time>
      </trkpt>
      <trkpt lat="43.20063" lon="5.55482">
        <ele>349.85</ele>
        <time>2022-09-10T10:08:24.000Z</time>
      </trkpt>
      <trkpt lat="43.20078" lon="5.55497">
        <ele>350.86</ele>
        <time>2022-09-10T10:08:30.000Z</time>
      </trkpt>
      <trkpt lat="43.20087" lon="5.55521">
        <ele>351.15</ele>
        <time>2022-09-10T10:08:36.000Z</time>
      </trkpt>
      <trkpt lat="43.20117" lon="5.55588">
        <ele>352.59</ele>
        <time>2022-09-10T10:09:13.000Z</time>
      </trkpt>
      <trkpt lat="43.20136" lon="5.55635">
        <ele>352.66</ele>
        <time>2022-09-10T10:09:24.000Z</time>
      </trkpt>
      <trkpt lat="43.20153" lon="5.55687">
        <ele>352.59</ele>
        <time>2022-09-10T10:09:34.000Z</time>
      </trkpt>
      <trkpt lat="43.20172" lon="5.55736">
        <ele>350.18</ele>
        <time>2022-09-10T10:09:43.000Z</time>
      </trkpt>
      <trkpt lat="43.20182" lon="5.55763">
        <ele>348.59</ele>
        <time>2022-09-10T10:09:47.000Z</time>
      </trkpt>
      <trkpt lat="43.20195" lon="5.55781">
        <ele>347.39</ele>
        <time>2022-09-10T10:09:50.000Z</time>
      </trkpt>
      <trkpt lat="43.2021" lon="5.55796">
        <ele>346.83</ele>
        <time>2022-09-10T10:09:53.000Z</time>
        <extensions>
          <visugpx:TrkExtension xmlns:visugpx="https://www.visugpx.com/editgpx/">
            <visugpx:node>1</visugpx:node>
            </visugpx:TrkExtension>
        </extensions>
      </trkpt>
      <trkpt lat="43.20232" lon="5.55808">
        <ele>341.3</ele>
      </trkpt>
      <trkpt lat="43.20261" lon="5.55842">
        <ele>339.8</ele>
      </trkpt>
      <trkpt lat="43.20273" lon="5.55861">
        <ele>339</ele>
      </trkpt>
      <trkpt lat="43.20278" lon="5.55872">
        <ele>338.2</ele>
      </trkpt>
      <trkpt lat="43.20285" lon="5.55899">
        <ele>337.1</ele>
      </trkpt>
      <trkpt lat="43.20289" lon="5.55923">
        <ele>335.6</ele>
      </trkpt>
      <trkpt lat="43.20299" lon="5.55964">
        <ele>332.8</ele>
      </trkpt>
      <trkpt lat="43.20331" lon="5.5606">
        <ele>327</ele>
      </trkpt>
      <trkpt lat="43.20336" lon="5.56088">
        <ele>325.2</ele>
      </trkpt>
      <trkpt lat="43.2034" lon="5.56119">
        <ele>323.6</ele>
      </trkpt>
      <trkpt lat="43.20341" lon="5.56148">
        <ele>321.6</ele>
      </trkpt>
      <trkpt lat="43.2034" lon="5.56192">
        <ele>318.4</ele>
      </trkpt>
      <trkpt lat="43.20341" lon="5.56209">
        <ele>316.8</ele>
      </trkpt>
      <trkpt lat="43.20351" lon="5.56265">
        <ele>312.2</ele>
      </trkpt>
      <trkpt lat="43.20371" lon="5.56349">
        <ele>305.9</ele>
      </trkpt>
      <trkpt lat="43.20377" lon="5.5638">
        <ele>302.9</ele>
      </trkpt>
      <trkpt lat="43.20378" lon="5.56408">
        <ele>300.4</ele>
      </trkpt>
      <trkpt lat="43.20373" lon="5.56433">
        <ele>299</ele>
      </trkpt>
      <trkpt lat="43.20369" lon="5.56449">
        <ele>298.4</ele>
      </trkpt>
      <trkpt lat="43.20361" lon="5.56477">
        <ele>296.6</ele>
      </trkpt>
      <trkpt lat="43.20345" lon="5.56541">
        <ele>290.5</ele>
      </trkpt>
      <trkpt lat="43.20345" lon="5.56551">
        <ele>289.7</ele>
      </trkpt>
      <trkpt lat="43.20347" lon="5.56561">
        <ele>289</ele>
      </trkpt>
      <trkpt lat="43.20351" lon="5.56568">
        <ele>288.5</ele>
      </trkpt>
      <trkpt lat="43.2035" lon="5.56571">
        <ele>288.2</ele>
        <extensions>
          <visugpx:TrkExtension xmlns:visugpx="https://www.visugpx.com/editgpx/">
            <visugpx:node>2</visugpx:node>
            </visugpx:TrkExtension>
        </extensions>
      </trkpt>
      <trkpt lat="43.20351" lon="5.56568">
        <ele>288.5</ele>
      </trkpt>
      <trkpt lat="43.20356" lon="5.56571">
        <ele>288.3</ele>
      </trkpt>
      <trkpt lat="43.20361" lon="5.56573">
        <ele>288.1</ele>
      </trkpt>
      <trkpt lat="43.20369" lon="5.56571">
        <ele>287.2</ele>
      </trkpt>
      <trkpt lat="43.20379" lon="5.56564">
        <ele>286.8</ele>
      </trkpt>
      <trkpt lat="43.20395" lon="5.56545">
        <ele>286.5</ele>
      </trkpt>
      <trkpt lat="43.20433" lon="5.56509">
        <ele>282.2</ele>
      </trkpt>
      <trkpt lat="43.20458" lon="5.56483">
        <ele>280.3</ele>
      </trkpt>
      <trkpt lat="43.20466" lon="5.56477">
        <ele>279.5</ele>
      </trkpt>
      <trkpt lat="43.20474" lon="5.56478">
        <ele>278.2</ele>
      </trkpt>
      <trkpt lat="43.20478" lon="5.5648">
        <ele>278.3</ele>
      </trkpt>
      <trkpt lat="43.20484" lon="5.56487">
        <ele>278.1</ele>
      </trkpt>
      <trkpt lat="43.20494" lon="5.56511">
        <ele>276.7</ele>
      </trkpt>
      <trkpt lat="43.20501" lon="5.56544">
        <ele>274.2</ele>
      </trkpt>
      <trkpt lat="43.20512" lon="5.56615">
        <ele>269.6</ele>
      </trkpt>
      <trkpt lat="43.20515" lon="5.56621">
        <ele>269.4</ele>
      </trkpt>
      <trkpt lat="43.2052" lon="5.56625">
        <ele>269.7</ele>
      </trkpt>
      <trkpt lat="43.20525" lon="5.56625">
        <ele>270.2</ele>
      </trkpt>
      <trkpt lat="43.20526" lon="5.56625">
        <ele>270.3</ele>
        <extensions>
          <visugpx:TrkExtension xmlns:visugpx="https://www.visugpx.com/editgpx/">
            <visugpx:node>3</visugpx:node>
            </visugpx:TrkExtension>
        </extensions>
      </trkpt>
      <trkpt lat="43.2053" lon="5.56622">
        <ele>270</ele>
      </trkpt>
      <trkpt lat="43.20533" lon="5.56617">
        <ele>269.2</ele>
      </trkpt>
      <trkpt lat="43.2054" lon="5.56563">
        <ele>267.2</ele>
      </trkpt>
      <trkpt lat="43.20546" lon="5.56531">
        <ele>266.6</ele>
      </trkpt>
      <trkpt lat="43.2056" lon="5.56482">
        <ele>264</ele>
      </trkpt>
      <trkpt lat="43.20584" lon="5.56426">
        <ele>259.3</ele>
      </trkpt>
      <trkpt lat="43.20618" lon="5.56365">
        <ele>252.9</ele>
      </trkpt>
      <trkpt lat="43.20648" lon="5.56307">
        <ele>247.5</ele>
      </trkpt>
      <trkpt lat="43.20653" lon="5.56293">
        <ele>246.8</ele>
      </trkpt>
      <trkpt lat="43.20663" lon="5.56252">
        <ele>243</ele>
      </trkpt>
      <trkpt lat="43.20666" lon="5.56229">
        <ele>239.9</ele>
      </trkpt>
      <trkpt lat="43.20667" lon="5.56197">
        <ele>237</ele>
        <extensions>
          <visugpx:TrkExtension xmlns:visugpx="https://www.visugpx.com/editgpx/">
            <visugpx:node>4</visugpx:node>
            </visugpx:TrkExtension>
        </extensions>
      </trkpt>
      <trkpt lat="43.20667" lon="5.56194">
        <ele>236.8</ele>
        <extensions>
          <visugpx:TrkExtension xmlns:visugpx="https://www.visugpx.com/editgpx/">
            <visugpx:node>5</visugpx:node>
            </visugpx:TrkExtension>
        </extensions>
      </trkpt>
      <trkpt lat="43.20668" lon="5.56179">
        <ele>235.7</ele>
      </trkpt>
      <trkpt lat="43.20671" lon="5.56154">
        <ele>234.6</ele>
      </trkpt>
      <trkpt lat="43.20682" lon="5.56096">
        <ele>235.6</ele>
      </trkpt>
      <trkpt lat="43.20686" lon="5.56084">
        <ele>233.8</ele>
      </trkpt>
      <trkpt lat="43.2069" lon="5.56075">
        <ele>231.9</ele>
      </trkpt>
      <trkpt lat="43.20696" lon="5.56071">
        <ele>228.8</ele>
      </trkpt>
      <trkpt lat="43.207" lon="5.56072">
        <ele>227.1</ele>
      </trkpt>
      <trkpt lat="43.20703" lon="5.56076">
        <ele>225.8</ele>
      </trkpt>
      <trkpt lat="43.20705" lon="5.56082">
        <ele>224.8</ele>
      </trkpt>
      <trkpt lat="43.20702" lon="5.56172">
        <ele>218.8</ele>
      </trkpt>
      <trkpt lat="43.20705" lon="5.56176">
        <ele>218.3</ele>
      </trkpt>
      <trkpt lat="43.20708" lon="5.56177">
        <ele>217.6</ele>
      </trkpt>
      <trkpt lat="43.2071" lon="5.56174">
        <ele>217.1</ele>
      </trkpt>
      <trkpt lat="43.20726" lon="5.56135">
        <ele>214.7</ele>
      </trkpt>
      <trkpt lat="43.2074" lon="5.56108">
        <ele>214</ele>
      </trkpt>
      <trkpt lat="43.20743" lon="5.56112">
        <ele>213.2</ele>
        <extensions>
          <visugpx:TrkExtension xmlns:visugpx="https://www.visugpx.com/editgpx/">
            <visugpx:node>6</visugpx:node>
            </visugpx:TrkExtension>
        </extensions>
      </trkpt>
      <trkpt lat="43.2074" lon="5.56108">
        <ele>214</ele>
      </trkpt>
      <trkpt lat="43.20741" lon="5.56121">
        <ele>213.1</ele>
      </trkpt>
      <trkpt lat="43.20744" lon="5.56183">
        <ele>209.1</ele>
      </trkpt>
      <trkpt lat="43.20741" lon="5.56403">
        <ele>193.1</ele>
      </trkpt>
      <trkpt lat="43.20739" lon="5.56422">
        <ele>192.5</ele>
      </trkpt>
      <trkpt lat="43.20724" lon="5.56507">
        <ele>185.1</ele>
      </trkpt>
      <trkpt lat="43.20727" lon="5.56532">
        <ele>184.6</ele>
      </trkpt>
      <trkpt lat="43.20728" lon="5.56535">
        <ele>184.6</ele>
        <extensions>
          <visugpx:TrkExtension xmlns:visugpx="https://www.visugpx.com/editgpx/">
            <visugpx:node>7</visugpx:node>
            </visugpx:TrkExtension>
        </extensions>
      </trkpt>
      <trkpt lat="43.20741" lon="5.5657">
        <ele>182.9</ele>
      </trkpt>
      <trkpt lat="43.20765" lon="5.56622">
        <ele>180.3</ele>
      </trkpt>
      <trkpt lat="43.20786" lon="5.56695">
        <ele>176</ele>
      </trkpt>
      <trkpt lat="43.20787" lon="5.56764">
        <ele>171.8</ele>
      </trkpt>
      <trkpt lat="43.20761" lon="5.56876">
        <ele>167.1</ele>
      </trkpt>
      <trkpt lat="43.20766" lon="5.56922">
        <ele>165.8</ele>
      </trkpt>
      <trkpt lat="43.20801" lon="5.57008">
        <ele>160.3</ele>
      </trkpt>
      <trkpt lat="43.2081" lon="5.57031">
        <ele>159.4</ele>
      </trkpt>
      <trkpt lat="43.20813" lon="5.57079">
        <ele>158.6</ele>
        <extensions>
          <visugpx:TrkExtension xmlns:visugpx="https://www.visugpx.com/editgpx/">
            <visugpx:node>8</visugpx:node>
            </visugpx:TrkExtension>
        </extensions>
      </trkpt>
      <trkpt lat="43.20813" lon="5.5708">
        <ele>158.6</ele>
      </trkpt>
      <trkpt lat="43.20787" lon="5.57167">
        <ele>155.3</ele>
      </trkpt>
      <trkpt lat="43.20732" lon="5.57254">
        <ele>151</ele>
      </trkpt>
      <trkpt lat="43.20727" lon="5.57332">
        <ele>147.4</ele>
      </trkpt>
      <trkpt lat="43.20723" lon="5.57411">
        <ele>142.6</ele>
      </trkpt>
      <trkpt lat="43.20727" lon="5.57445">
        <ele>142.5</ele>
      </trkpt>
      <trkpt lat="43.20727" lon="5.57498">
        <ele>139.6</ele>
      </trkpt>
      <trkpt lat="43.20687" lon="5.57577">
        <ele>137.4</ele>
      </trkpt>
      <trkpt lat="43.20675" lon="5.57599">
        <ele>137.3</ele>
        <extensions>
          <visugpx:TrkExtension xmlns:visugpx="https://www.visugpx.com/editgpx/">
            <visugpx:node>9</visugpx:node>
            </visugpx:TrkExtension>
        </extensions>
      </trkpt>
      <trkpt lat="43.20645" lon="5.57655">
        <ele>133.7</ele>
      </trkpt>
      <trkpt lat="43.20641" lon="5.57681">
        <ele>131.5</ele>
      </trkpt>
      <trkpt lat="43.20658" lon="5.57728">
        <ele>131.1</ele>
      </trkpt>
      <trkpt lat="43.20646" lon="5.57786">
        <ele>129.2</ele>
      </trkpt>
      <trkpt lat="43.20644" lon="5.57835">
        <ele>127.2</ele>
      </trkpt>
      <trkpt lat="43.20667" lon="5.57894">
        <ele>124.1</ele>
      </trkpt>
      <trkpt lat="43.20691" lon="5.57925">
        <ele>123.2</ele>
      </trkpt>
      <trkpt lat="43.20715" lon="5.57929">
        <ele>122.6</ele>
      </trkpt>
      <trkpt lat="43.20737" lon="5.57938">
        <ele>125.6</ele>
      </trkpt>
      <trkpt lat="43.20736" lon="5.58032">
        <ele>120.2</ele>
      </trkpt>
      <trkpt lat="43.20741" lon="5.5805">
        <ele>118.2</ele>
        <extensions>
          <visugpx:TrkExtension xmlns:visugpx="https://www.visugpx.com/editgpx/">
            <visugpx:node>10</visugpx:node>
            </visugpx:TrkExtension>
        </extensions>
      </trkpt>
      <trkpt lat="43.20742" lon="5.58053">
        <ele>117.7</ele>
        <extensions>
          <visugpx:TrkExtension xmlns:visugpx="https://www.visugpx.com/editgpx/">
            <visugpx:node>11</visugpx:node>
            </visugpx:TrkExtension>
        </extensions>
      </trkpt>
      <trkpt lat="43.20745" lon="5.58108">
        <ele>116.1</ele>
        <extensions>
          <visugpx:TrkExtension xmlns:visugpx="https://www.visugpx.com/editgpx/">
            <visugpx:node>12</visugpx:node>
            </visugpx:TrkExtension>
        </extensions>
      </trkpt>
      <trkpt lat="43.20745" lon="5.58109">
        <ele>115.9</ele>
      </trkpt>
      <trkpt lat="43.20743" lon="5.58129">
        <ele>115.7</ele>
      </trkpt>
      <trkpt lat="43.20743" lon="5.58141">
        <ele>115.1</ele>
      </trkpt>
      <trkpt lat="43.20741" lon="5.58155">
        <ele>114.4</ele>
      </trkpt>
      <trkpt lat="43.20735" lon="5.58183">
        <ele>113</ele>
      </trkpt>
      <trkpt lat="43.20722" lon="5.58207">
        <ele>113.8</ele>
      </trkpt>
      <trkpt lat="43.20695" lon="5.58246">
        <ele>117.5</ele>
      </trkpt>
      <trkpt lat="43.20688" lon="5.58261">
        <ele>118.1</ele>
      </trkpt>
      <trkpt lat="43.20683" lon="5.58281">
        <ele>116.8</ele>
      </trkpt>
      <trkpt lat="43.20676" lon="5.58297">
        <ele>115.9</ele>
      </trkpt>
      <trkpt lat="43.2066" lon="5.58317">
        <ele>117.5</ele>
      </trkpt>
      <trkpt lat="43.20649" lon="5.58342">
        <ele>117.6</ele>
      </trkpt>
      <trkpt lat="43.20627" lon="5.58372">
        <ele>120.2</ele>
      </trkpt>
      <trkpt lat="43.20604" lon="5.58431">
        <ele>121.9</ele>
      </trkpt>
      <trkpt lat="43.206" lon="5.58454">
        <ele>122.7</ele>
      </trkpt>
      <trkpt lat="43.20597" lon="5.58491">
        <ele>123.7</ele>
      </trkpt>
      <trkpt lat="43.20594" lon="5.58503">
        <ele>124</ele>
      </trkpt>
      <trkpt lat="43.20586" lon="5.58512">
        <ele>124.7</ele>
      </trkpt>
      <trkpt lat="43.20575" lon="5.58521">
        <ele>125.8</ele>
      </trkpt>
      <trkpt lat="43.20551" lon="5.58546">
        <ele>127.7</ele>
      </trkpt>
      <trkpt lat="43.20522" lon="5.58588">
        <ele>129.7</ele>
      </trkpt>
      <trkpt lat="43.20507" lon="5.58599">
        <ele>131.4</ele>
      </trkpt>
      <trkpt lat="43.20491" lon="5.58599">
        <ele>133.5</ele>
      </trkpt>
      <trkpt lat="43.20466" lon="5.58594">
        <ele>136.1</ele>
      </trkpt>
      <trkpt lat="43.20447" lon="5.58585">
        <ele>137.7</ele>
      </trkpt>
      <trkpt lat="43.20431" lon="5.58573">
        <ele>139.4</ele>
      </trkpt>
      <trkpt lat="43.20404" lon="5.58547">
        <ele>142.6</ele>
      </trkpt>
      <trkpt lat="43.20399" lon="5.58536">
        <ele>143.7</ele>
      </trkpt>
      <trkpt lat="43.20397" lon="5.58525">
        <ele>144.6</ele>
        <extensions>
          <visugpx:TrkExtension xmlns:visugpx="https://www.visugpx.com/editgpx/">
            <visugpx:node>13</visugpx:node>
            </visugpx:TrkExtension>
        </extensions>
      </trkpt>
      <trkpt lat="43.20397" lon="5.58524">
        <ele>144.6</ele>
      </trkpt>
      <trkpt lat="43.20399" lon="5.58514">
        <ele>144.9</ele>
      </trkpt>
      <trkpt lat="43.20424" lon="5.58426">
        <ele>143.3</ele>
      </trkpt>
      <trkpt lat="43.20431" lon="5.58387">
        <ele>143.6</ele>
      </trkpt>
      <trkpt lat="43.20436" lon="5.58333">
        <ele>145.2</ele>
      </trkpt>
      <trkpt lat="43.20433" lon="5.58314">
        <ele>146.2</ele>
      </trkpt>
      <trkpt lat="43.20431" lon="5.58312">
        <ele>146.3</ele>
      </trkpt>
      <trkpt lat="43.20427" lon="5.58313">
        <ele>146</ele>
      </trkpt>
      <trkpt lat="43.20422" lon="5.58317">
        <ele>145</ele>
      </trkpt>
      <trkpt lat="43.20416" lon="5.58337">
        <ele>140.6</ele>
      </trkpt>
      <trkpt lat="43.204" lon="5.5837">
        <ele>137.8</ele>
      </trkpt>
      <trkpt lat="43.20387" lon="5.58386">
        <ele>134.4</ele>
      </trkpt>
      <trkpt lat="43.2038" lon="5.58391">
        <ele>132.7</ele>
      </trkpt>
      <trkpt lat="43.20369" lon="5.5839">
        <ele>131.6</ele>
      </trkpt>
      <trkpt lat="43.20362" lon="5.58387">
        <ele>131.4</ele>
      </trkpt>
      <trkpt lat="43.20355" lon="5.58382">
        <ele>130.1</ele>
      </trkpt>
      <trkpt lat="43.20351" lon="5.58376">
        <ele>129.4</ele>
      </trkpt>
      <trkpt lat="43.20351" lon="5.58354">
        <ele>131.2</ele>
      </trkpt>
      <trkpt lat="43.20353" lon="5.58325">
        <ele>132.6</ele>
      </trkpt>
      <trkpt lat="43.20349" lon="5.58289">
        <ele>133</ele>
      </trkpt>
      <trkpt lat="43.20346" lon="5.5828">
        <ele>132.7</ele>
      </trkpt>
      <trkpt lat="43.20343" lon="5.58279">
        <ele>132</ele>
      </trkpt>
      <trkpt lat="43.20341" lon="5.58281">
        <ele>131.5</ele>
      </trkpt>
      <trkpt lat="43.20339" lon="5.58302">
        <ele>130.4</ele>
      </trkpt>
      <trkpt lat="43.20339" lon="5.58328">
        <ele>128.3</ele>
      </trkpt>
      <trkpt lat="43.20332" lon="5.5834">
        <ele>125.9</ele>
      </trkpt>
      <trkpt lat="43.20307" lon="5.58402">
        <ele>122.5</ele>
      </trkpt>
      <trkpt lat="43.20298" lon="5.5841">
        <ele>121.2</ele>
      </trkpt>
      <trkpt lat="43.20282" lon="5.58411">
        <ele>121</ele>
      </trkpt>
      <trkpt lat="43.20278" lon="5.5841">
        <ele>121.2</ele>
      </trkpt>
      <trkpt lat="43.20273" lon="5.58402">
        <ele>122.9</ele>
      </trkpt>
      <trkpt lat="43.20268" lon="5.58385">
        <ele>126</ele>
      </trkpt>
      <trkpt lat="43.20263" lon="5.58381">
        <ele>126.8</ele>
      </trkpt>
      <trkpt lat="43.20259" lon="5.58381">
        <ele>126.8</ele>
      </trkpt>
      <trkpt lat="43.20256" lon="5.58384">
        <ele>126.4</ele>
      </trkpt>
      <trkpt lat="43.20251" lon="5.58408">
        <ele>123.2</ele>
      </trkpt>
      <trkpt lat="43.20246" lon="5.5842">
        <ele>122.1</ele>
      </trkpt>
      <trkpt lat="43.20242" lon="5.58423">
        <ele>122.2</ele>
      </trkpt>
      <trkpt lat="43.20178" lon="5.58434">
        <ele>128.4</ele>
      </trkpt>
      <trkpt lat="43.20171" lon="5.58431">
        <ele>129.3</ele>
      </trkpt>
      <trkpt lat="43.20167" lon="5.58425">
        <ele>130.9</ele>
      </trkpt>
      <trkpt lat="43.20149" lon="5.58386">
        <ele>136.1</ele>
      </trkpt>
      <trkpt lat="43.20135" lon="5.5837">
        <ele>137.2</ele>
      </trkpt>
      <trkpt lat="43.20127" lon="5.58366">
        <ele>138.4</ele>
      </trkpt>
      <trkpt lat="43.20118" lon="5.58371">
        <ele>137.6</ele>
      </trkpt>
      <trkpt lat="43.20089" lon="5.58405">
        <ele>136.2</ele>
      </trkpt>
      <trkpt lat="43.20062" lon="5.5844">
        <ele>135.7</ele>
      </trkpt>
      <trkpt lat="43.20057" lon="5.58443">
        <ele>136</ele>
      </trkpt>
      <trkpt lat="43.20055" lon="5.58442">
        <ele>136.2</ele>
      </trkpt>
      <trkpt lat="43.20041" lon="5.58431">
        <ele>136.7</ele>
      </trkpt>
      <trkpt lat="43.20038" lon="5.58426">
        <ele>137.1</ele>
      </trkpt>
      <trkpt lat="43.20038" lon="5.58415">
        <ele>138.1</ele>
      </trkpt>
      <trkpt lat="43.20043" lon="5.584">
        <ele>139.5</ele>
      </trkpt>
      <trkpt lat="43.20067" lon="5.58388">
        <ele>140.7</ele>
      </trkpt>
      <trkpt lat="43.20076" lon="5.58381">
        <ele>141.5</ele>
      </trkpt>
      <trkpt lat="43.20117" lon="5.58309">
        <ele>150.7</ele>
      </trkpt>
      <trkpt lat="43.20136" lon="5.58295">
        <ele>153.4</ele>
      </trkpt>
      <trkpt lat="43.20168" lon="5.58289">
        <ele>156.4</ele>
      </trkpt>
      <trkpt lat="43.20176" lon="5.58286">
        <ele>156.8</ele>
      </trkpt>
      <trkpt lat="43.20184" lon="5.5828">
        <ele>157.7</ele>
      </trkpt>
      <trkpt lat="43.20225" lon="5.5821">
        <ele>165.8</ele>
      </trkpt>
      <trkpt lat="43.20244" lon="5.58186">
        <ele>168.2</ele>
      </trkpt>
      <trkpt lat="43.20251" lon="5.58173">
        <ele>169.6</ele>
      </trkpt>
      <trkpt lat="43.20249" lon="5.58165">
        <ele>171.3</ele>
      </trkpt>
      <trkpt lat="43.20245" lon="5.58164">
        <ele>171.9</ele>
      </trkpt>
      <trkpt lat="43.20229" lon="5.58176">
        <ele>171.6</ele>
      </trkpt>
      <trkpt lat="43.20221" lon="5.58174">
        <ele>172.6</ele>
      </trkpt>
      <trkpt lat="43.20217" lon="5.5817">
        <ele>173.1</ele>
      </trkpt>
      <trkpt lat="43.20187" lon="5.58117">
        <ele>174.3</ele>
      </trkpt>
      <trkpt lat="43.20178" lon="5.58005">
        <ele>171.9</ele>
      </trkpt>
      <trkpt lat="43.20173" lon="5.57982">
        <ele>171.7</ele>
      </trkpt>
      <trkpt lat="43.20171" lon="5.57977">
        <ele>171.6</ele>
      </trkpt>
      <trkpt lat="43.20153" lon="5.57966">
        <ele>169.8</ele>
      </trkpt>
      <trkpt lat="43.20148" lon="5.57958">
        <ele>169.3</ele>
      </trkpt>
      <trkpt lat="43.20146" lon="5.5795">
        <ele>169.2</ele>
      </trkpt>
      <trkpt lat="43.20147" lon="5.57935">
        <ele>168.7</ele>
      </trkpt>
      <trkpt lat="43.20153" lon="5.57923">
        <ele>169.4</ele>
      </trkpt>
      <trkpt lat="43.20169" lon="5.57866">
        <ele>168.1</ele>
      </trkpt>
      <trkpt lat="43.20207" lon="5.57754">
        <ele>165.1</ele>
      </trkpt>
      <trkpt lat="43.2021" lon="5.57738">
        <ele>164.9</ele>
      </trkpt>
      <trkpt lat="43.2021" lon="5.57712">
        <ele>163.4</ele>
      </trkpt>
      <trkpt lat="43.20219" lon="5.57616">
        <ele>159.7</ele>
      </trkpt>
      <trkpt lat="43.20217" lon="5.57543">
        <ele>160.3</ele>
      </trkpt>
      <trkpt lat="43.20215" lon="5.5754">
        <ele>160.8</ele>
      </trkpt>
      <trkpt lat="43.20211" lon="5.57539">
        <ele>161.5</ele>
        <extensions>
          <visugpx:TrkExtension xmlns:visugpx="https://www.visugpx.com/editgpx/">
            <visugpx:node>14</visugpx:node>
            </visugpx:TrkExtension>
        </extensions>
      </trkpt>
      <trkpt lat="43.20207" lon="5.5754">
        <ele>162.1</ele>
      </trkpt>
      <trkpt lat="43.20204" lon="5.57543">
        <ele>162.3</ele>
      </trkpt>
      <trkpt lat="43.20196" lon="5.57573">
        <ele>159.5</ele>
      </trkpt>
      <trkpt lat="43.20182" lon="5.57606">
        <ele>159.9</ele>
      </trkpt>
      <trkpt lat="43.2014" lon="5.57674">
        <ele>162</ele>
      </trkpt>
      <trkpt lat="43.20027" lon="5.57803">
        <ele>161.6</ele>
      </trkpt>
      <trkpt lat="43.19989" lon="5.57823">
        <ele>160.3</ele>
      </trkpt>
      <trkpt lat="43.19972" lon="5.57826">
        <ele>160</ele>
      </trkpt>
      <trkpt lat="43.19959" lon="5.57822">
        <ele>158.8</ele>
      </trkpt>
      <trkpt lat="43.19957" lon="5.57817">
        <ele>159.1</ele>
      </trkpt>
      <trkpt lat="43.19953" lon="5.57799">
        <ele>159.4</ele>
      </trkpt>
      <trkpt lat="43.19955" lon="5.57783">
        <ele>159.7</ele>
      </trkpt>
      <trkpt lat="43.19984" lon="5.57642">
        <ele>160.9</ele>
      </trkpt>
      <trkpt lat="43.19994" lon="5.57565">
        <ele>163</ele>
      </trkpt>
      <trkpt lat="43.19993" lon="5.57561">
        <ele>163</ele>
      </trkpt>
      <trkpt lat="43.19991" lon="5.57559">
        <ele>163.2</ele>
      </trkpt>
      <trkpt lat="43.19983" lon="5.57565">
        <ele>163.5</ele>
      </trkpt>
      <trkpt lat="43.19966" lon="5.57595">
        <ele>159.5</ele>
      </trkpt>
      <trkpt lat="43.19912" lon="5.5766">
        <ele>158.1</ele>
      </trkpt>
      <trkpt lat="43.19891" lon="5.5767">
        <ele>159</ele>
      </trkpt>
      <trkpt lat="43.19876" lon="5.57666">
        <ele>158.8</ele>
      </trkpt>
      <trkpt lat="43.19825" lon="5.57617">
        <ele>163</ele>
      </trkpt>
      <trkpt lat="43.19818" lon="5.57616">
        <ele>162.8</ele>
      </trkpt>
      <trkpt lat="43.19814" lon="5.57618">
        <ele>162.5</ele>
      </trkpt>
      <trkpt lat="43.19812" lon="5.57623">
        <ele>162.2</ele>
      </trkpt>
      <trkpt lat="43.19812" lon="5.5763">
        <ele>162</ele>
      </trkpt>
      <trkpt lat="43.19817" lon="5.57642">
        <ele>160.6</ele>
      </trkpt>
      <trkpt lat="43.19838" lon="5.57727">
        <ele>157.2</ele>
      </trkpt>
      <trkpt lat="43.1984" lon="5.57763">
        <ele>156.4</ele>
      </trkpt>
      <trkpt lat="43.19835" lon="5.57788">
        <ele>156.7</ele>
      </trkpt>
      <trkpt lat="43.19821" lon="5.57823">
        <ele>156.3</ele>
      </trkpt>
      <trkpt lat="43.19802" lon="5.57846">
        <ele>156.2</ele>
      </trkpt>
      <trkpt lat="43.19782" lon="5.57856">
        <ele>157.3</ele>
      </trkpt>
      <trkpt lat="43.1976" lon="5.57874">
        <ele>157.8</ele>
      </trkpt>
      <trkpt lat="43.19751" lon="5.57888">
        <ele>157.9</ele>
      </trkpt>
      <trkpt lat="43.19718" lon="5.57926">
        <ele>159.2</ele>
      </trkpt>
      <trkpt lat="43.19709" lon="5.57931">
        <ele>159.2</ele>
      </trkpt>
      <trkpt lat="43.197" lon="5.5793">
        <ele>159.7</ele>
      </trkpt>
      <trkpt lat="43.19674" lon="5.57895">
        <ele>160.6</ele>
      </trkpt>
      <trkpt lat="43.19669" lon="5.57881">
        <ele>160.6</ele>
      </trkpt>
      <trkpt lat="43.19659" lon="5.57815">
        <ele>162.2</ele>
      </trkpt>
      <trkpt lat="43.19657" lon="5.57809">
        <ele>162.6</ele>
      </trkpt>
      <trkpt lat="43.19653" lon="5.57807">
        <ele>162.3</ele>
      </trkpt>
      <trkpt lat="43.19648" lon="5.57809">
        <ele>161.5</ele>
      </trkpt>
      <trkpt lat="43.19641" lon="5.57817">
        <ele>159.3</ele>
      </trkpt>
      <trkpt lat="43.1962" lon="5.57848">
        <ele>157.5</ele>
      </trkpt>
      <trkpt lat="43.19585" lon="5.57878">
        <ele>157.3</ele>
      </trkpt>
      <trkpt lat="43.19573" lon="5.57886">
        <ele>156.4</ele>
      </trkpt>
      <trkpt lat="43.19571" lon="5.57886">
        <ele>156.4</ele>
        <extensions>
          <visugpx:TrkExtension xmlns:visugpx="https://www.visugpx.com/editgpx/">
            <visugpx:node>15</visugpx:node>
            </visugpx:TrkExtension>
        </extensions>
      </trkpt>
      <trkpt lat="43.19573" lon="5.57886">
        <ele>156.4</ele>
      </trkpt>
      <trkpt lat="43.19566" lon="5.57913">
        <ele>152.2</ele>
      </trkpt>
      <trkpt lat="43.19539" lon="5.57998">
        <ele>140.6</ele>
      </trkpt>
      <trkpt lat="43.19534" lon="5.58033">
        <ele>138.6</ele>
      </trkpt>
      <trkpt lat="43.19522" lon="5.58115">
        <ele>136.4</ele>
      </trkpt>
      <trkpt lat="43.19479" lon="5.58286">
        <ele>128.2</ele>
      </trkpt>
      <trkpt lat="43.19467" lon="5.58353">
        <ele>123.5</ele>
      </trkpt>
      <trkpt lat="43.19415" lon="5.58635">
        <ele>115.9</ele>
      </trkpt>
      <trkpt lat="43.19404" lon="5.58668">
        <ele>115.6</ele>
      </trkpt>
      <trkpt lat="43.19382" lon="5.58713">
        <ele>112.3</ele>
      </trkpt>
      <trkpt lat="43.19327" lon="5.5881">
        <ele>105.6</ele>
      </trkpt>
      <trkpt lat="43.19293" lon="5.5891">
        <ele>100.9</ele>
      </trkpt>
      <trkpt lat="43.19275" lon="5.58953">
        <ele>98.6</ele>
      </trkpt>
      <trkpt lat="43.19251" lon="5.58999">
        <ele>96.1</ele>
      </trkpt>
      <trkpt lat="43.1925" lon="5.59003">
        <ele>95.9</ele>
      </trkpt>
      <trkpt lat="43.19231" lon="5.59024">
        <ele>94.4</ele>
      </trkpt>
      <trkpt lat="43.19202" lon="5.59046">
        <ele>92.6</ele>
      </trkpt>
      <trkpt lat="43.19162" lon="5.59062">
        <ele>91.8</ele>
      </trkpt>
      <trkpt lat="43.19131" lon="5.59071">
        <ele>91.2</ele>
      </trkpt>
      <trkpt lat="43.19099" lon="5.59092">
        <ele>89.7</ele>
      </trkpt>
      <trkpt lat="43.19019" lon="5.5912">
        <ele>86.1</ele>
      </trkpt>
      <trkpt lat="43.19002" lon="5.5913">
        <ele>85.1</ele>
      </trkpt>
      <trkpt lat="43.18985" lon="5.59149">
        <ele>83.4</ele>
      </trkpt>
      <trkpt lat="43.1897" lon="5.59163">
        <ele>82.5</ele>
        <extensions>
          <visugpx:TrkExtension xmlns:visugpx="https://www.visugpx.com/editgpx/">
            <visugpx:node>16</visugpx:node>
            </visugpx:TrkExtension>
        </extensions>
      </trkpt>
      <trkpt lat="43.18961" lon="5.59174">
        <ele>81.5</ele>
        <extensions>
          <visugpx:TrkExtension xmlns:visugpx="https://www.visugpx.com/editgpx/">
            <visugpx:node>17</visugpx:node>
            </visugpx:TrkExtension>
        </extensions>
      </trkpt>
      <trkpt lat="43.18953" lon="5.59185">
        <ele>80.7</ele>
      </trkpt>
      <trkpt lat="43.1892" lon="5.59247">
        <ele>77.2</ele>
      </trkpt>
      <trkpt lat="43.18899" lon="5.59282">
        <ele>74.6</ele>
      </trkpt>
      <trkpt lat="43.1888" lon="5.59298">
        <ele>72.9</ele>
      </trkpt>
      <trkpt lat="43.18855" lon="5.59315">
        <ele>71.1</ele>
      </trkpt>
      <trkpt lat="43.18779" lon="5.59351">
        <ele>66.6</ele>
      </trkpt>
      <trkpt lat="43.18747" lon="5.5937">
        <ele>64.8</ele>
      </trkpt>
      <trkpt lat="43.18721" lon="5.59411">
        <ele>63.4</ele>
      </trkpt>
      <trkpt lat="43.18679" lon="5.59492">
        <ele>58.6</ele>
      </trkpt>
      <trkpt lat="43.18656" lon="5.59521">
        <ele>56.9</ele>
      </trkpt>
      <trkpt lat="43.18634" lon="5.59539">
        <ele>53.7</ele>
      </trkpt>
      <trkpt lat="43.18598" lon="5.59556">
        <ele>51.2</ele>
      </trkpt>
      <trkpt lat="43.18552" lon="5.59582">
        <ele>46.3</ele>
      </trkpt>
      <trkpt lat="43.18549" lon="5.59583">
        <ele>46</ele>
      </trkpt>
      <trkpt lat="43.18542" lon="5.59583">
        <ele>45</ele>
      </trkpt>
      <trkpt lat="43.18539" lon="5.59582">
        <ele>44.7</ele>
      </trkpt>
      <trkpt lat="43.18533" lon="5.59577">
        <ele>44.3</ele>
      </trkpt>
      <trkpt lat="43.18529" lon="5.59573">
        <ele>44.5</ele>
      </trkpt>
      <trkpt lat="43.18528" lon="5.59571">
        <ele>44.8</ele>
      </trkpt>
      <trkpt lat="43.18527" lon="5.59569">
        <ele>45.2</ele>
      </trkpt>
      <trkpt lat="43.18518" lon="5.59575">
        <ele>46</ele>
      </trkpt>
      <trkpt lat="43.18512" lon="5.59581">
        <ele>45.8</ele>
      </trkpt>
      <trkpt lat="43.18474" lon="5.59638">
        <ele>45.8</ele>
      </trkpt>
      <trkpt lat="43.18468" lon="5.59644">
        <ele>46</ele>
      </trkpt>
      <trkpt lat="43.18424" lon="5.59673">
        <ele>49.5</ele>
      </trkpt>
      <trkpt lat="43.18415" lon="5.59683">
        <ele>49.9</ele>
      </trkpt>
      <trkpt lat="43.18409" lon="5.59695">
        <ele>49.4</ele>
      </trkpt>
      <trkpt lat="43.18405" lon="5.59713">
        <ele>49.7</ele>
      </trkpt>
      <trkpt lat="43.18404" lon="5.5973">
        <ele>50.2</ele>
      </trkpt>
      <trkpt lat="43.18404" lon="5.59738">
        <ele>50.6</ele>
      </trkpt>
      <trkpt lat="43.18401" lon="5.59748">
        <ele>51.7</ele>
      </trkpt>
      <trkpt lat="43.18396" lon="5.59757">
        <ele>52.6</ele>
      </trkpt>
      <trkpt lat="43.18388" lon="5.59759">
        <ele>54</ele>
      </trkpt>
      <trkpt lat="43.18381" lon="5.59757">
        <ele>54.2</ele>
      </trkpt>
      <trkpt lat="43.1834" lon="5.59751">
        <ele>54.2</ele>
      </trkpt>
      <trkpt lat="43.18329" lon="5.59748">
        <ele>53.8</ele>
      </trkpt>
      <trkpt lat="43.18326" lon="5.59746">
        <ele>53.7</ele>
      </trkpt>
      <trkpt lat="43.18323" lon="5.59744">
        <ele>53.6</ele>
      </trkpt>
      <trkpt lat="43.18322" lon="5.59748">
        <ele>53.6</ele>
      </trkpt>
      <trkpt lat="43.18316" lon="5.59754">
        <ele>53.3</ele>
      </trkpt>
      <trkpt lat="43.18312" lon="5.59755">
        <ele>53.2</ele>
      </trkpt>
      <trkpt lat="43.18305" lon="5.59755">
        <ele>53</ele>
      </trkpt>
      <trkpt lat="43.18302" lon="5.59752">
        <ele>52.9</ele>
      </trkpt>
      <trkpt lat="43.18295" lon="5.5975">
        <ele>52.6</ele>
      </trkpt>
      <trkpt lat="43.18291" lon="5.59752">
        <ele>52.5</ele>
      </trkpt>
      <trkpt lat="43.18288" lon="5.59754">
        <ele>52.4</ele>
      </trkpt>
      <trkpt lat="43.18286" lon="5.59758">
        <ele>52.3</ele>
      </trkpt>
      <trkpt lat="43.18284" lon="5.59763">
        <ele>52.2</ele>
      </trkpt>
      <trkpt lat="43.18284" lon="5.59774">
        <ele>52.2</ele>
      </trkpt>
      <trkpt lat="43.18286" lon="5.59779">
        <ele>52.2</ele>
      </trkpt>
      <trkpt lat="43.18289" lon="5.59783">
        <ele>52</ele>
      </trkpt>
      <trkpt lat="43.18297" lon="5.59785">
        <ele>52.2</ele>
      </trkpt>
      <trkpt lat="43.18301" lon="5.59784">
        <ele>52.4</ele>
      </trkpt>
      <trkpt lat="43.18304" lon="5.59793">
        <ele>51.8</ele>
      </trkpt>
      <trkpt lat="43.18315" lon="5.5982">
        <ele>49.1</ele>
      </trkpt>
      <trkpt lat="43.18338" lon="5.59863">
        <ele>44.8</ele>
      </trkpt>
      <trkpt lat="43.18346" lon="5.59872">
        <ele>43.8</ele>
      </trkpt>
      <trkpt lat="43.1838" lon="5.59892">
        <ele>42.4</ele>
      </trkpt>
      <trkpt lat="43.18394" lon="5.59904">
        <ele>41.4</ele>
      </trkpt>
      <trkpt lat="43.18405" lon="5.59914">
        <ele>40.3</ele>
      </trkpt>
      <trkpt lat="43.18409" lon="5.5992">
        <ele>39.9</ele>
      </trkpt>
      <trkpt lat="43.18413" lon="5.59928">
        <ele>39.6</ele>
      </trkpt>
      <trkpt lat="43.18411" lon="5.59932">
        <ele>39.4</ele>
      </trkpt>
      <trkpt lat="43.1841" lon="5.59936">
        <ele>39.3</ele>
      </trkpt>
      <trkpt lat="43.1841" lon="5.5994">
        <ele>39.2</ele>
      </trkpt>
      <trkpt lat="43.18411" lon="5.59945">
        <ele>39</ele>
      </trkpt>
      <trkpt lat="43.18412" lon="5.59949">
        <ele>38.9</ele>
      </trkpt>
      <trkpt lat="43.18412" lon="5.5996">
        <ele>38.5</ele>
      </trkpt>
      <trkpt lat="43.18403" lon="5.59976">
        <ele>38.1</ele>
      </trkpt>
      <trkpt lat="43.18399" lon="5.59985">
        <ele>37.7</ele>
      </trkpt>
      <trkpt lat="43.1839" lon="5.59999">
        <ele>37.9</ele>
      </trkpt>
      <trkpt lat="43.18383" lon="5.60014">
        <ele>37.2</ele>
      </trkpt>
      <trkpt lat="43.18372" lon="5.60045">
        <ele>35.9</ele>
      </trkpt>
      <trkpt lat="43.1837" lon="5.6005">
        <ele>35.9</ele>
      </trkpt>
      <trkpt lat="43.18369" lon="5.60058">
        <ele>35.8</ele>
      </trkpt>
      <trkpt lat="43.18366" lon="5.6007">
        <ele>35.8</ele>
      </trkpt>
      <trkpt lat="43.18364" lon="5.60085">
        <ele>35.6</ele>
      </trkpt>
      <trkpt lat="43.1836" lon="5.60126">
        <ele>35.5</ele>
      </trkpt>
      <trkpt lat="43.18356" lon="5.60162">
        <ele>34.2</ele>
      </trkpt>
      <trkpt lat="43.18353" lon="5.60193">
        <ele>33.7</ele>
      </trkpt>
      <trkpt lat="43.1835" lon="5.60214">
        <ele>33.2</ele>
      </trkpt>
      <trkpt lat="43.18345" lon="5.60262">
        <ele>32.2</ele>
      </trkpt>
      <trkpt lat="43.18344" lon="5.60261">
        <ele>32.1</ele>
      </trkpt>
      <trkpt lat="43.18344" lon="5.6026">
        <ele>32.2</ele>
        <extensions>
          <visugpx:TrkExtension xmlns:visugpx="https://www.visugpx.com/editgpx/">
            <visugpx:node>18</visugpx:node>
            </visugpx:TrkExtension>
        </extensions>
      </trkpt>
      <trkpt lat="43.18289" lon="5.60247">
        <ele>31.1</ele>
      </trkpt>
      <trkpt lat="43.18253" lon="5.6051">
        <ele>28.1</ele>
      </trkpt>
      <trkpt lat="43.18251" lon="5.60512">
        <ele>28.4</ele>
      </trkpt>
      <trkpt lat="43.18248" lon="5.60531">
        <ele>29</ele>
      </trkpt>
      <trkpt lat="43.1825" lon="5.6054">
        <ele>29</ele>
      </trkpt>
      <trkpt lat="43.18269" lon="5.60543">
        <ele>28.7</ele>
      </trkpt>
    </trkseg>
  </trk>
  <trk>
    <name><![CDATA[autorisé 1]]></name>
    <extensions>
      <line xmlns="http://www.topografix.com/GPX/gpx_style/0/2">
        <color>00ffff</color>
        <opacity>1</opacity>
        <width>6</width>
          <extensions>
            <jonction>1</jonction>
          </extensions>
      </line>
    </extensions>
    <trkseg>
      <trkpt lat="43.18924" lon="5.59106">
        <ele>64.7</ele>
      </trkpt>
      <trkpt lat="43.18929" lon="5.59096">
        <ele>64.9</ele>
      </trkpt>
      <trkpt lat="43.18931" lon="5.59077">
        <ele>64</ele>
      </trkpt>
      <trkpt lat="43.18931" lon="5.59059">
        <ele>64</ele>
      </trkpt>
      <trkpt lat="43.18936" lon="5.59035">
        <ele>65.9</ele>
      </trkpt>
      <trkpt lat="43.18942" lon="5.59011">
        <ele>67.1</ele>
      </trkpt>
      <trkpt lat="43.18938" lon="5.58988">
        <ele>71.3</ele>
      </trkpt>
      <trkpt lat="43.18928" lon="5.58952">
        <ele>74.5</ele>
      </trkpt>
      <trkpt lat="43.18916" lon="5.5892">
        <ele>74.2</ele>
      </trkpt>
      <trkpt lat="43.1892" lon="5.58908">
        <ele>75.7</ele>
      </trkpt>
      <trkpt lat="43.18928" lon="5.58863">
        <ele>81.8</ele>
      </trkpt>
      <trkpt lat="43.18933" lon="5.5884">
        <ele>84.6</ele>
      </trkpt>
      <trkpt lat="43.1894" lon="5.58823">
        <ele>87.8</ele>
      </trkpt>
      <trkpt lat="43.18951" lon="5.58808">
        <ele>90.6</ele>
      </trkpt>
      <trkpt lat="43.18961" lon="5.58802">
        <ele>92</ele>
        <extensions>
          <visugpx:TrkExtension xmlns:visugpx="https://www.visugpx.com/editgpx/">
            <visugpx:node>1</visugpx:node>
            </visugpx:TrkExtension>
        </extensions>
      </trkpt>
      <trkpt lat="43.18966" lon="5.58799">
        <ele>92.7</ele>
      </trkpt>
      <trkpt lat="43.18974" lon="5.58796">
        <ele>93.3</ele>
      </trkpt>
      <trkpt lat="43.19015" lon="5.58789">
        <ele>94.7</ele>
      </trkpt>
      <trkpt lat="43.1903" lon="5.58783">
        <ele>96</ele>
      </trkpt>
      <trkpt lat="43.19048" lon="5.58764">
        <ele>97.9</ele>
      </trkpt>
      <trkpt lat="43.1907" lon="5.58737">
        <ele>100.5</ele>
      </trkpt>
      <trkpt lat="43.19077" lon="5.58717">
        <ele>101.9</ele>
      </trkpt>
      <trkpt lat="43.19078" lon="5.58696">
        <ele>103.7</ele>
      </trkpt>
      <trkpt lat="43.19082" lon="5.58681">
        <ele>104.9</ele>
      </trkpt>
      <trkpt lat="43.19099" lon="5.58657">
        <ele>107.4</ele>
      </trkpt>
      <trkpt lat="43.19132" lon="5.58613">
        <ele>110.1</ele>
      </trkpt>
      <trkpt lat="43.19135" lon="5.58609">
        <ele>110.4</ele>
      </trkpt>
      <trkpt lat="43.19146" lon="5.5859">
        <ele>110.8</ele>
      </trkpt>
      <trkpt lat="43.19155" lon="5.58562">
        <ele>111</ele>
      </trkpt>
      <trkpt lat="43.19174" lon="5.58512">
        <ele>113.4</ele>
      </trkpt>
      <trkpt lat="43.19189" lon="5.58465">
        <ele>116</ele>
      </trkpt>
      <trkpt lat="43.19197" lon="5.58436">
        <ele>116.9</ele>
      </trkpt>
      <trkpt lat="43.19202" lon="5.58419">
        <ele>116.7</ele>
      </trkpt>
      <trkpt lat="43.19201" lon="5.58375">
        <ele>116.9</ele>
      </trkpt>
      <trkpt lat="43.19196" lon="5.58332">
        <ele>116.5</ele>
      </trkpt>
      <trkpt lat="43.19198" lon="5.58305">
        <ele>115.5</ele>
      </trkpt>
      <trkpt lat="43.19197" lon="5.58269">
        <ele>116.1</ele>
      </trkpt>
      <trkpt lat="43.19196" lon="5.58236">
        <ele>117</ele>
      </trkpt>
      <trkpt lat="43.19193" lon="5.58205">
        <ele>119.2</ele>
      </trkpt>
      <trkpt lat="43.19192" lon="5.58178">
        <ele>120.5</ele>
      </trkpt>
      <trkpt lat="43.19195" lon="5.58164">
        <ele>119.9</ele>
      </trkpt>
      <trkpt lat="43.19198" lon="5.58147">
        <ele>119.3</ele>
      </trkpt>
      <trkpt lat="43.19194" lon="5.58135">
        <ele>119.6</ele>
      </trkpt>
      <trkpt lat="43.19187" lon="5.58123">
        <ele>119.4</ele>
      </trkpt>
      <trkpt lat="43.19172" lon="5.58107">
        <ele>121.4</ele>
      </trkpt>
      <trkpt lat="43.19155" lon="5.58088">
        <ele>124.6</ele>
      </trkpt>
      <trkpt lat="43.19142" lon="5.58069">
        <ele>126.1</ele>
      </trkpt>
      <trkpt lat="43.19133" lon="5.58049">
        <ele>126.4</ele>
      </trkpt>
      <trkpt lat="43.19128" lon="5.58027">
        <ele>127.2</ele>
      </trkpt>
      <trkpt lat="43.19125" lon="5.58007">
        <ele>126.4</ele>
      </trkpt>
      <trkpt lat="43.19121" lon="5.57976">
        <ele>126.9</ele>
      </trkpt>
      <trkpt lat="43.19116" lon="5.57961">
        <ele>127.1</ele>
      </trkpt>
      <trkpt lat="43.19108" lon="5.57951">
        <ele>127.2</ele>
      </trkpt>
      <trkpt lat="43.19096" lon="5.5794">
        <ele>126.1</ele>
      </trkpt>
      <trkpt lat="43.19081" lon="5.57927">
        <ele>127.2</ele>
      </trkpt>
      <trkpt lat="43.19066" lon="5.57918">
        <ele>128</ele>
      </trkpt>
      <trkpt lat="43.19053" lon="5.57912">
        <ele>128</ele>
      </trkpt>
      <trkpt lat="43.19043" lon="5.57911">
        <ele>128.1</ele>
      </trkpt>
      <trkpt lat="43.19034" lon="5.57914">
        <ele>129.1</ele>
      </trkpt>
      <trkpt lat="43.19019" lon="5.57924">
        <ele>131.6</ele>
      </trkpt>
      <trkpt lat="43.19006" lon="5.57936">
        <ele>131.8</ele>
      </trkpt>
      <trkpt lat="43.18995" lon="5.57941">
        <ele>131.3</ele>
      </trkpt>
      <trkpt lat="43.18987" lon="5.57945">
        <ele>132</ele>
      </trkpt>
      <trkpt lat="43.18972" lon="5.57948">
        <ele>132.8</ele>
      </trkpt>
      <trkpt lat="43.18963" lon="5.57951">
        <ele>134.3</ele>
      </trkpt>
      <trkpt lat="43.18951" lon="5.57951">
        <ele>136.3</ele>
      </trkpt>
      <trkpt lat="43.18943" lon="5.57947">
        <ele>137.7</ele>
      </trkpt>
      <trkpt lat="43.18938" lon="5.5794">
        <ele>137.6</ele>
      </trkpt>
      <trkpt lat="43.18935" lon="5.57928">
        <ele>138.4</ele>
      </trkpt>
      <trkpt lat="43.18933" lon="5.57912">
        <ele>139.9</ele>
      </trkpt>
      <trkpt lat="43.18931" lon="5.57894">
        <ele>141.6</ele>
      </trkpt>
      <trkpt lat="43.18931" lon="5.57889">
        <ele>142.1</ele>
      </trkpt>
      <trkpt lat="43.18933" lon="5.57857">
        <ele>146.3</ele>
      </trkpt>
      <trkpt lat="43.18941" lon="5.57817">
        <ele>149.8</ele>
      </trkpt>
      <trkpt lat="43.18947" lon="5.57793">
        <ele>151.2</ele>
      </trkpt>
      <trkpt lat="43.18955" lon="5.57757">
        <ele>150.4</ele>
      </trkpt>
      <trkpt lat="43.18957" lon="5.5774">
        <ele>151.5</ele>
      </trkpt>
      <trkpt lat="43.18954" lon="5.57726">
        <ele>154.2</ele>
      </trkpt>
      <trkpt lat="43.18951" lon="5.57707">
        <ele>157.2</ele>
      </trkpt>
      <trkpt lat="43.18945" lon="5.57691">
        <ele>160.9</ele>
      </trkpt>
      <trkpt lat="43.18939" lon="5.57669">
        <ele>161.4</ele>
      </trkpt>
      <trkpt lat="43.18937" lon="5.57645">
        <ele>162.1</ele>
      </trkpt>
      <trkpt lat="43.18937" lon="5.57617">
        <ele>165.2</ele>
      </trkpt>
      <trkpt lat="43.18935" lon="5.5758">
        <ele>170.1</ele>
      </trkpt>
      <trkpt lat="43.18934" lon="5.57542">
        <ele>170.3</ele>
      </trkpt>
      <trkpt lat="43.18929" lon="5.57511">
        <ele>172</ele>
        <extensions>
          <visugpx:TrkExtension xmlns:visugpx="https://www.visugpx.com/editgpx/">
            <visugpx:node>2</visugpx:node>
            </visugpx:TrkExtension>
        </extensions>
      </trkpt>
      <trkpt lat="43.18927" lon="5.57501">
        <ele>172.6</ele>
      </trkpt>
      <trkpt lat="43.18922" lon="5.5748">
        <ele>174.9</ele>
      </trkpt>
      <trkpt lat="43.18918" lon="5.57465">
        <ele>176.4</ele>
      </trkpt>
      <trkpt lat="43.18912" lon="5.57459">
        <ele>177.6</ele>
      </trkpt>
      <trkpt lat="43.189" lon="5.57451">
        <ele>179.1</ele>
      </trkpt>
      <trkpt lat="43.18887" lon="5.57446">
        <ele>180.3</ele>
      </trkpt>
      <trkpt lat="43.18863" lon="5.57442">
        <ele>183.3</ele>
      </trkpt>
      <trkpt lat="43.18841" lon="5.57449">
        <ele>187.2</ele>
        <extensions>
          <visugpx:TrkExtension xmlns:visugpx="https://www.visugpx.com/editgpx/">
            <visugpx:node>3</visugpx:node>
            </visugpx:TrkExtension>
        </extensions>
      </trkpt>
      <trkpt lat="43.18863" lon="5.57442">
        <ele>183.3</ele>
      </trkpt>
      <trkpt lat="43.18887" lon="5.57446">
        <ele>180.3</ele>
      </trkpt>
      <trkpt lat="43.189" lon="5.57451">
        <ele>179.1</ele>
      </trkpt>
      <trkpt lat="43.18912" lon="5.57459">
        <ele>177.6</ele>
      </trkpt>
      <trkpt lat="43.18918" lon="5.57465">
        <ele>176.4</ele>
      </trkpt>
      <trkpt lat="43.18922" lon="5.5748">
        <ele>174.9</ele>
      </trkpt>
      <trkpt lat="43.18927" lon="5.57501">
        <ele>172.6</ele>
      </trkpt>
      <trkpt lat="43.18934" lon="5.57542">
        <ele>170.3</ele>
      </trkpt>
      <trkpt lat="43.18935" lon="5.5758">
        <ele>170.1</ele>
      </trkpt>
      <trkpt lat="43.18937" lon="5.57617">
        <ele>165.2</ele>
      </trkpt>
      <trkpt lat="43.18937" lon="5.57645">
        <ele>162.1</ele>
      </trkpt>
      <trkpt lat="43.18939" lon="5.57669">
        <ele>161.4</ele>
      </trkpt>
      <trkpt lat="43.18945" lon="5.57691">
        <ele>160.9</ele>
      </trkpt>
      <trkpt lat="43.18951" lon="5.57707">
        <ele>157.2</ele>
      </trkpt>
      <trkpt lat="43.18954" lon="5.57726">
        <ele>154.2</ele>
      </trkpt>
      <trkpt lat="43.18957" lon="5.5774">
        <ele>151.5</ele>
      </trkpt>
      <trkpt lat="43.18955" lon="5.57757">
        <ele>150.4</ele>
      </trkpt>
      <trkpt lat="43.18947" lon="5.57793">
        <ele>151.2</ele>
      </trkpt>
      <trkpt lat="43.18941" lon="5.57817">
        <ele>149.8</ele>
      </trkpt>
      <trkpt lat="43.18933" lon="5.57857">
        <ele>146.3</ele>
      </trkpt>
      <trkpt lat="43.18931" lon="5.57889">
        <ele>142.1</ele>
      </trkpt>
      <trkpt lat="43.18931" lon="5.57894">
        <ele>141.6</ele>
      </trkpt>
      <trkpt lat="43.18933" lon="5.57912">
        <ele>139.9</ele>
      </trkpt>
      <trkpt lat="43.18935" lon="5.57928">
        <ele>138.4</ele>
      </trkpt>
      <trkpt lat="43.18938" lon="5.5794">
        <ele>137.6</ele>
      </trkpt>
      <trkpt lat="43.18943" lon="5.57947">
        <ele>137.7</ele>
      </trkpt>
      <trkpt lat="43.18951" lon="5.57951">
        <ele>136.3</ele>
      </trkpt>
      <trkpt lat="43.18963" lon="5.57951">
        <ele>134.3</ele>
      </trkpt>
      <trkpt lat="43.18972" lon="5.57948">
        <ele>132.8</ele>
      </trkpt>
      <trkpt lat="43.18987" lon="5.57945">
        <ele>132</ele>
      </trkpt>
      <trkpt lat="43.18995" lon="5.57941">
        <ele>131.3</ele>
      </trkpt>
      <trkpt lat="43.19005" lon="5.57924">
        <ele>130.6</ele>
      </trkpt>
      <trkpt lat="43.19018" lon="5.5791">
        <ele>128.8</ele>
      </trkpt>
      <trkpt lat="43.19035" lon="5.57882">
        <ele>122.9</ele>
      </trkpt>
      <trkpt lat="43.19042" lon="5.57876">
        <ele>122.7</ele>
      </trkpt>
      <trkpt lat="43.19049" lon="5.57873">
        <ele>122.3</ele>
      </trkpt>
      <trkpt lat="43.19074" lon="5.5788">
        <ele>120</ele>
      </trkpt>
      <trkpt lat="43.19098" lon="5.57895">
        <ele>118.2</ele>
      </trkpt>
      <trkpt lat="43.19107" lon="5.57903">
        <ele>118</ele>
      </trkpt>
      <trkpt lat="43.19113" lon="5.57906">
        <ele>116.6</ele>
      </trkpt>
      <trkpt lat="43.19124" lon="5.57906">
        <ele>114.4</ele>
      </trkpt>
      <trkpt lat="43.19144" lon="5.57901">
        <ele>111.6</ele>
      </trkpt>
      <trkpt lat="43.19148" lon="5.57908">
        <ele>111.4</ele>
      </trkpt>
      <trkpt lat="43.19163" lon="5.57926">
        <ele>110</ele>
      </trkpt>
      <trkpt lat="43.19167" lon="5.57931">
        <ele>109.2</ele>
      </trkpt>
      <trkpt lat="43.19172" lon="5.57939">
        <ele>110.6</ele>
      </trkpt>
      <trkpt lat="43.19175" lon="5.57948">
        <ele>111.3</ele>
      </trkpt>
      <trkpt lat="43.19178" lon="5.57965">
        <ele>111.7</ele>
      </trkpt>
      <trkpt lat="43.19184" lon="5.58017">
        <ele>110</ele>
      </trkpt>
      <trkpt lat="43.19187" lon="5.58028">
        <ele>109.2</ele>
      </trkpt>
      <trkpt lat="43.19193" lon="5.5804">
        <ele>107.2</ele>
      </trkpt>
      <trkpt lat="43.19212" lon="5.58059">
        <ele>105.2</ele>
      </trkpt>
      <trkpt lat="43.19236" lon="5.5809">
        <ele>104.1</ele>
      </trkpt>
      <trkpt lat="43.19253" lon="5.58107">
        <ele>101</ele>
      </trkpt>
      <trkpt lat="43.19271" lon="5.5812">
        <ele>100.4</ele>
      </trkpt>
      <trkpt lat="43.19277" lon="5.58125">
        <ele>99.6</ele>
        <extensions>
          <visugpx:TrkExtension xmlns:visugpx="https://www.visugpx.com/editgpx/">
            <visugpx:node>4</visugpx:node>
            </visugpx:TrkExtension>
        </extensions>
      </trkpt>
    </trkseg>
  </trk>
  <trk>
    <name><![CDATA[autorisé 2]]></name>
    <extensions>
      <line xmlns="http://www.topografix.com/GPX/gpx_style/0/2">
        <color>00ffff</color>
        <opacity>1</opacity>
        <width>6</width>
          <extensions>
            <jonction>1</jonction>
          </extensions>
      </line>
    </extensions>
    <trkseg>
      <trkpt lat="43.20358" lon="5.56573">
        <ele>288</ele>
      </trkpt>
      <trkpt lat="43.20358" lon="5.56574">
        <ele>288</ele>
      </trkpt>
      <trkpt lat="43.20355" lon="5.56572">
        <ele>288.1</ele>
      </trkpt>
      <trkpt lat="43.20352" lon="5.56571">
        <ele>288.2</ele>
      </trkpt>
      <trkpt lat="43.2035" lon="5.56569">
        <ele>288.3</ele>
      </trkpt>
      <trkpt lat="43.20328" lon="5.56626">
        <ele>282.9</ele>
      </trkpt>
      <trkpt lat="43.20315" lon="5.56657">
        <ele>280.6</ele>
      </trkpt>
      <trkpt lat="43.203" lon="5.56683">
        <ele>278.6</ele>
      </trkpt>
      <trkpt lat="43.20271" lon="5.56735">
        <ele>272.5</ele>
      </trkpt>
      <trkpt lat="43.20258" lon="5.56755">
        <ele>269.8</ele>
      </trkpt>
      <trkpt lat="43.20239" lon="5.56776">
        <ele>266.3</ele>
      </trkpt>
      <trkpt lat="43.2022" lon="5.568">
        <ele>263</ele>
      </trkpt>
      <trkpt lat="43.20199" lon="5.56841">
        <ele>258.4</ele>
      </trkpt>
      <trkpt lat="43.20197" lon="5.56847">
        <ele>257.8</ele>
      </trkpt>
      <trkpt lat="43.20195" lon="5.56853">
        <ele>257.1</ele>
      </trkpt>
      <trkpt lat="43.20189" lon="5.56871">
        <ele>253.4</ele>
      </trkpt>
      <trkpt lat="43.20174" lon="5.56906">
        <ele>249.3</ele>
      </trkpt>
      <trkpt lat="43.20167" lon="5.56925">
        <ele>249.5</ele>
      </trkpt>
      <trkpt lat="43.2016" lon="5.56952">
        <ele>246.6</ele>
      </trkpt>
      <trkpt lat="43.20154" lon="5.56989">
        <ele>244</ele>
      </trkpt>
      <trkpt lat="43.20149" lon="5.57007">
        <ele>243.7</ele>
      </trkpt>
      <trkpt lat="43.20144" lon="5.57022">
        <ele>243.6</ele>
      </trkpt>
      <trkpt lat="43.20137" lon="5.57036">
        <ele>243.4</ele>
      </trkpt>
      <trkpt lat="43.20114" lon="5.57065">
        <ele>242.3</ele>
      </trkpt>
      <trkpt lat="43.20103" lon="5.57081">
        <ele>242</ele>
      </trkpt>
      <trkpt lat="43.20095" lon="5.57099">
        <ele>241</ele>
      </trkpt>
      <trkpt lat="43.20083" lon="5.57114">
        <ele>242.9</ele>
      </trkpt>
      <trkpt lat="43.20063" lon="5.57142">
        <ele>241.9</ele>
      </trkpt>
      <trkpt lat="43.20052" lon="5.57151">
        <ele>241.4</ele>
      </trkpt>
      <trkpt lat="43.20035" lon="5.57162">
        <ele>239.9</ele>
      </trkpt>
      <trkpt lat="43.20003" lon="5.5718">
        <ele>235.4</ele>
      </trkpt>
      <trkpt lat="43.19982" lon="5.57195">
        <ele>232.4</ele>
      </trkpt>
      <trkpt lat="43.19959" lon="5.57219">
        <ele>228.4</ele>
      </trkpt>
      <trkpt lat="43.19952" lon="5.57232">
        <ele>226.6</ele>
      </trkpt>
      <trkpt lat="43.19945" lon="5.57249">
        <ele>225.1</ele>
      </trkpt>
      <trkpt lat="43.19932" lon="5.57265">
        <ele>222.1</ele>
      </trkpt>
      <trkpt lat="43.19911" lon="5.57289">
        <ele>220.2</ele>
      </trkpt>
      <trkpt lat="43.19891" lon="5.57305">
        <ele>219</ele>
      </trkpt>
      <trkpt lat="43.19871" lon="5.57316">
        <ele>216.1</ele>
      </trkpt>
      <trkpt lat="43.19838" lon="5.5734">
        <ele>212.8</ele>
      </trkpt>
      <trkpt lat="43.19821" lon="5.57355">
        <ele>211.1</ele>
      </trkpt>
      <trkpt lat="43.19809" lon="5.5737">
        <ele>209.7</ele>
      </trkpt>
      <trkpt lat="43.19786" lon="5.57404">
        <ele>204.3</ele>
      </trkpt>
      <trkpt lat="43.19757" lon="5.57439">
        <ele>199.9</ele>
      </trkpt>
      <trkpt lat="43.19731" lon="5.57482">
        <ele>196.4</ele>
      </trkpt>
      <trkpt lat="43.19714" lon="5.57511">
        <ele>195.8</ele>
      </trkpt>
      <trkpt lat="43.19697" lon="5.5755">
        <ele>195.9</ele>
      </trkpt>
      <trkpt lat="43.19672" lon="5.57594">
        <ele>193.2</ele>
      </trkpt>
      <trkpt lat="43.19662" lon="5.5761">
        <ele>192.5</ele>
      </trkpt>
      <trkpt lat="43.19641" lon="5.57629">
        <ele>189.5</ele>
      </trkpt>
      <trkpt lat="43.19631" lon="5.57642">
        <ele>187.9</ele>
      </trkpt>
      <trkpt lat="43.19629" lon="5.57651">
        <ele>186.7</ele>
      </trkpt>
      <trkpt lat="43.19625" lon="5.57669">
        <ele>184.7</ele>
      </trkpt>
      <trkpt lat="43.1962" lon="5.57693">
        <ele>180.8</ele>
      </trkpt>
      <trkpt lat="43.19611" lon="5.57725">
        <ele>176.5</ele>
      </trkpt>
      <trkpt lat="43.19599" lon="5.5777">
        <ele>170.2</ele>
      </trkpt>
      <trkpt lat="43.19594" lon="5.5779">
        <ele>168</ele>
      </trkpt>
      <trkpt lat="43.19593" lon="5.57812">
        <ele>165.4</ele>
      </trkpt>
      <trkpt lat="43.19591" lon="5.57825">
        <ele>163.7</ele>
      </trkpt>
      <trkpt lat="43.19578" lon="5.57868">
        <ele>159</ele>
      </trkpt>
      <trkpt lat="43.19574" lon="5.57882">
        <ele>157</ele>
        <extensions>
          <visugpx:TrkExtension xmlns:visugpx="https://www.visugpx.com/editgpx/">
            <visugpx:node>1</visugpx:node>
            </visugpx:TrkExtension>
        </extensions>
      </trkpt>
      <trkpt lat="43.19567" lon="5.5788">
        <ele>157.2</ele>
      </trkpt>
      <trkpt lat="43.19555" lon="5.57873">
        <ele>158.2</ele>
      </trkpt>
      <trkpt lat="43.19551" lon="5.57866">
        <ele>158.5</ele>
      </trkpt>
      <trkpt lat="43.19549" lon="5.57859">
        <ele>159.1</ele>
      </trkpt>
      <trkpt lat="43.19549" lon="5.57842">
        <ele>160.1</ele>
      </trkpt>
      <trkpt lat="43.19558" lon="5.57807">
        <ele>163.4</ele>
      </trkpt>
      <trkpt lat="43.19564" lon="5.57778">
        <ele>166.2</ele>
      </trkpt>
      <trkpt lat="43.19564" lon="5.57764">
        <ele>167.1</ele>
      </trkpt>
      <trkpt lat="43.19558" lon="5.57751">
        <ele>167.3</ele>
      </trkpt>
      <trkpt lat="43.19545" lon="5.57738">
        <ele>168.7</ele>
      </trkpt>
      <trkpt lat="43.19521" lon="5.5772">
        <ele>169.4</ele>
      </trkpt>
      <trkpt lat="43.19518" lon="5.57713">
        <ele>169.6</ele>
      </trkpt>
      <trkpt lat="43.19517" lon="5.5771">
        <ele>169.6</ele>
      </trkpt>
      <trkpt lat="43.19516" lon="5.577">
        <ele>170.2</ele>
      </trkpt>
      <trkpt lat="43.19522" lon="5.57688">
        <ele>170.8</ele>
      </trkpt>
      <trkpt lat="43.19559" lon="5.57638">
        <ele>173.6</ele>
      </trkpt>
      <trkpt lat="43.19607" lon="5.57569">
        <ele>174.5</ele>
      </trkpt>
      <trkpt lat="43.19644" lon="5.57504">
        <ele>173.1</ele>
      </trkpt>
      <trkpt lat="43.19693" lon="5.57396">
        <ele>172.7</ele>
      </trkpt>
      <trkpt lat="43.19696" lon="5.57364">
        <ele>171.6</ele>
      </trkpt>
      <trkpt lat="43.19704" lon="5.57298">
        <ele>167.5</ele>
      </trkpt>
      <trkpt lat="43.19705" lon="5.57222">
        <ele>160.6</ele>
      </trkpt>
      <trkpt lat="43.19707" lon="5.57212">
        <ele>159.5</ele>
      </trkpt>
      <trkpt lat="43.19711" lon="5.57205">
        <ele>159</ele>
      </trkpt>
      <trkpt lat="43.19718" lon="5.57201">
        <ele>159.2</ele>
      </trkpt>
      <trkpt lat="43.19735" lon="5.57207">
        <ele>161.7</ele>
      </trkpt>
      <trkpt lat="43.19746" lon="5.57209">
        <ele>162.1</ele>
      </trkpt>
      <trkpt lat="43.19754" lon="5.57207">
        <ele>162</ele>
      </trkpt>
      <trkpt lat="43.19773" lon="5.57195">
        <ele>159.6</ele>
        <extensions>
          <visugpx:TrkExtension xmlns:visugpx="https://www.visugpx.com/editgpx/">
            <visugpx:node>2</visugpx:node>
            </visugpx:TrkExtension>
        </extensions>
      </trkpt>
      <trkpt lat="43.19778" lon="5.57192">
        <ele>160.1</ele>
      </trkpt>
      <trkpt lat="43.19798" lon="5.57177">
        <ele>161.5</ele>
      </trkpt>
      <trkpt lat="43.19791" lon="5.57175">
        <ele>161.1</ele>
      </trkpt>
      <trkpt lat="43.19785" lon="5.57177">
        <ele>161</ele>
      </trkpt>
      <trkpt lat="43.19763" lon="5.57189">
        <ele>159</ele>
      </trkpt>
      <trkpt lat="43.19753" lon="5.5719">
        <ele>158.1</ele>
      </trkpt>
      <trkpt lat="43.19733" lon="5.57185">
        <ele>157.8</ele>
      </trkpt>
      <trkpt lat="43.19706" lon="5.57175">
        <ele>155.2</ele>
      </trkpt>
      <trkpt lat="43.19697" lon="5.57177">
        <ele>154.6</ele>
      </trkpt>
      <trkpt lat="43.19688" lon="5.57183">
        <ele>155.4</ele>
      </trkpt>
      <trkpt lat="43.19682" lon="5.57191">
        <ele>155.4</ele>
      </trkpt>
      <trkpt lat="43.19678" lon="5.57198">
        <ele>154.8</ele>
      </trkpt>
      <trkpt lat="43.19677" lon="5.57212">
        <ele>153.9</ele>
      </trkpt>
      <trkpt lat="43.19676" lon="5.57261">
        <ele>153.3</ele>
      </trkpt>
      <trkpt lat="43.19672" lon="5.57279">
        <ele>151.3</ele>
      </trkpt>
      <trkpt lat="43.19663" lon="5.573">
        <ele>148.7</ele>
        <extensions>
          <visugpx:TrkExtension xmlns:visugpx="https://www.visugpx.com/editgpx/">
            <visugpx:node>3</visugpx:node>
            </visugpx:TrkExtension>
        </extensions>
      </trkpt>
    </trkseg>
  </trk>
  <trk>
    <name><![CDATA[autorisé 3]]></name>
    <extensions>
      <line xmlns="http://www.topografix.com/GPX/gpx_style/0/2">
        <color>00ffff</color>
        <opacity>1</opacity>
        <width>6</width>
          <extensions>
            <jonction>1</jonction>
          </extensions>
      </line>
    </extensions>
    <trkseg>
      <trkpt lat="43.20746" lon="5.5611">
        <ele>212.8</ele>
      </trkpt>
      <trkpt lat="43.20745" lon="5.5611">
        <ele>213</ele>
      </trkpt>
      <trkpt lat="43.20747" lon="5.56112">
        <ele>212.5</ele>
      </trkpt>
      <trkpt lat="43.2075" lon="5.56117">
        <ele>211.9</ele>
      </trkpt>
      <trkpt lat="43.20759" lon="5.56129">
        <ele>214.2</ele>
      </trkpt>
      <trkpt lat="43.20762" lon="5.56134">
        <ele>214.9</ele>
      </trkpt>
      <trkpt lat="43.20765" lon="5.56142">
        <ele>215.5</ele>
      </trkpt>
      <trkpt lat="43.20769" lon="5.56151">
        <ele>215.7</ele>
      </trkpt>
      <trkpt lat="43.20773" lon="5.5616">
        <ele>215.6</ele>
      </trkpt>
      <trkpt lat="43.20777" lon="5.56173">
        <ele>215.7</ele>
      </trkpt>
      <trkpt lat="43.20783" lon="5.5619">
        <ele>217</ele>
      </trkpt>
      <trkpt lat="43.20795" lon="5.56225">
        <ele>217.8</ele>
      </trkpt>
      <trkpt lat="43.20799" lon="5.56237">
        <ele>218.2</ele>
      </trkpt>
      <trkpt lat="43.20802" lon="5.56246">
        <ele>218.4</ele>
      </trkpt>
      <trkpt lat="43.20806" lon="5.56254">
        <ele>219.2</ele>
      </trkpt>
      <trkpt lat="43.20814" lon="5.56268">
        <ele>221.1</ele>
      </trkpt>
      <trkpt lat="43.20817" lon="5.56273">
        <ele>221.6</ele>
      </trkpt>
      <trkpt lat="43.20821" lon="5.56279">
        <ele>222.2</ele>
      </trkpt>
      <trkpt lat="43.20824" lon="5.56286">
        <ele>222.9</ele>
      </trkpt>
      <trkpt lat="43.20826" lon="5.56292">
        <ele>223.4</ele>
      </trkpt>
      <trkpt lat="43.20828" lon="5.56298">
        <ele>224.1</ele>
      </trkpt>
      <trkpt lat="43.2083" lon="5.56304">
        <ele>224.5</ele>
      </trkpt>
      <trkpt lat="43.20831" lon="5.5631">
        <ele>225</ele>
      </trkpt>
      <trkpt lat="43.20831" lon="5.56319">
        <ele>225.4</ele>
      </trkpt>
      <trkpt lat="43.20832" lon="5.5633">
        <ele>226.2</ele>
      </trkpt>
      <trkpt lat="43.20834" lon="5.56343">
        <ele>228.3</ele>
      </trkpt>
      <trkpt lat="43.20835" lon="5.56351">
        <ele>229.8</ele>
      </trkpt>
      <trkpt lat="43.20842" lon="5.5638">
        <ele>233.2</ele>
      </trkpt>
      <trkpt lat="43.20843" lon="5.56386">
        <ele>233.6</ele>
      </trkpt>
      <trkpt lat="43.20845" lon="5.56394">
        <ele>234.2</ele>
      </trkpt>
      <trkpt lat="43.20847" lon="5.56399">
        <ele>234.5</ele>
      </trkpt>
      <trkpt lat="43.20849" lon="5.56405">
        <ele>234.9</ele>
      </trkpt>
      <trkpt lat="43.20851" lon="5.56409">
        <ele>235.4</ele>
      </trkpt>
      <trkpt lat="43.20853" lon="5.56414">
        <ele>235.9</ele>
      </trkpt>
      <trkpt lat="43.20855" lon="5.56418">
        <ele>236.4</ele>
      </trkpt>
      <trkpt lat="43.20857" lon="5.5642">
        <ele>236.8</ele>
      </trkpt>
      <trkpt lat="43.20861" lon="5.56424">
        <ele>237.6</ele>
      </trkpt>
      <trkpt lat="43.20868" lon="5.56429">
        <ele>238.6</ele>
      </trkpt>
      <trkpt lat="43.20872" lon="5.56432">
        <ele>239.3</ele>
      </trkpt>
      <trkpt lat="43.20884" lon="5.56439">
        <ele>240.9</ele>
      </trkpt>
      <trkpt lat="43.20892" lon="5.56444">
        <ele>241.9</ele>
      </trkpt>
      <trkpt lat="43.20915" lon="5.56456">
        <ele>244.8</ele>
      </trkpt>
      <trkpt lat="43.20932" lon="5.56465">
        <ele>248.1</ele>
      </trkpt>
      <trkpt lat="43.20946" lon="5.56474">
        <ele>250.1</ele>
      </trkpt>
      <trkpt lat="43.20949" lon="5.56477">
        <ele>250.8</ele>
      </trkpt>
      <trkpt lat="43.20953" lon="5.56481">
        <ele>251.7</ele>
      </trkpt>
      <trkpt lat="43.20956" lon="5.56484">
        <ele>252</ele>
      </trkpt>
      <trkpt lat="43.20958" lon="5.56487">
        <ele>252.2</ele>
      </trkpt>
      <trkpt lat="43.20961" lon="5.56491">
        <ele>252.3</ele>
      </trkpt>
      <trkpt lat="43.20964" lon="5.56497">
        <ele>252.4</ele>
      </trkpt>
      <trkpt lat="43.20968" lon="5.56505">
        <ele>252.4</ele>
      </trkpt>
      <trkpt lat="43.20973" lon="5.56517">
        <ele>252.6</ele>
      </trkpt>
      <trkpt lat="43.20977" lon="5.56533">
        <ele>252.6</ele>
      </trkpt>
      <trkpt lat="43.2098" lon="5.56546">
        <ele>252.3</ele>
      </trkpt>
      <trkpt lat="43.20981" lon="5.56553">
        <ele>252</ele>
      </trkpt>
      <trkpt lat="43.20983" lon="5.56562">
        <ele>251.5</ele>
      </trkpt>
      <trkpt lat="43.20983" lon="5.5657">
        <ele>251.1</ele>
      </trkpt>
      <trkpt lat="43.20984" lon="5.56579">
        <ele>250.4</ele>
      </trkpt>
      <trkpt lat="43.20984" lon="5.56598">
        <ele>249.3</ele>
      </trkpt>
      <trkpt lat="43.20985" lon="5.56627">
        <ele>248.2</ele>
      </trkpt>
      <trkpt lat="43.20986" lon="5.56634">
        <ele>248.1</ele>
      </trkpt>
      <trkpt lat="43.20986" lon="5.56638">
        <ele>248.1</ele>
      </trkpt>
      <trkpt lat="43.20987" lon="5.5664">
        <ele>248.3</ele>
      </trkpt>
      <trkpt lat="43.20988" lon="5.56642">
        <ele>248.6</ele>
      </trkpt>
      <trkpt lat="43.2099" lon="5.56643">
        <ele>249.1</ele>
      </trkpt>
      <trkpt lat="43.20992" lon="5.56644">
        <ele>249.7</ele>
      </trkpt>
      <trkpt lat="43.20994" lon="5.56643">
        <ele>250.3</ele>
      </trkpt>
      <trkpt lat="43.20996" lon="5.56642">
        <ele>250.7</ele>
      </trkpt>
      <trkpt lat="43.20996" lon="5.56641">
        <ele>251</ele>
      </trkpt>
      <trkpt lat="43.20997" lon="5.56637">
        <ele>251.3</ele>
      </trkpt>
      <trkpt lat="43.20998" lon="5.5663">
        <ele>252</ele>
      </trkpt>
      <trkpt lat="43.20999" lon="5.56613">
        <ele>253.6</ele>
      </trkpt>
      <trkpt lat="43.21002" lon="5.56578">
        <ele>257.4</ele>
      </trkpt>
      <trkpt lat="43.21005" lon="5.56539">
        <ele>262.4</ele>
      </trkpt>
      <trkpt lat="43.21008" lon="5.56517">
        <ele>265.4</ele>
      </trkpt>
      <trkpt lat="43.21009" lon="5.56509">
        <ele>266.5</ele>
      </trkpt>
      <trkpt lat="43.21011" lon="5.56503">
        <ele>267.3</ele>
      </trkpt>
      <trkpt lat="43.21013" lon="5.56496">
        <ele>268.3</ele>
      </trkpt>
      <trkpt lat="43.21015" lon="5.56491">
        <ele>269.1</ele>
      </trkpt>
      <trkpt lat="43.21023" lon="5.56477">
        <ele>271.8</ele>
      </trkpt>
      <trkpt lat="43.21027" lon="5.5647">
        <ele>273.6</ele>
      </trkpt>
      <trkpt lat="43.2103" lon="5.56466">
        <ele>275</ele>
      </trkpt>
      <trkpt lat="43.21033" lon="5.56463">
        <ele>276.1</ele>
      </trkpt>
      <trkpt lat="43.21037" lon="5.56459">
        <ele>277.2</ele>
      </trkpt>
      <trkpt lat="43.2104" lon="5.56458">
        <ele>277.6</ele>
      </trkpt>
      <trkpt lat="43.21043" lon="5.56458">
        <ele>278</ele>
      </trkpt>
      <trkpt lat="43.21046" lon="5.56458">
        <ele>278.1</ele>
      </trkpt>
      <trkpt lat="43.2105" lon="5.56458">
        <ele>278.2</ele>
      </trkpt>
      <trkpt lat="43.21056" lon="5.56459">
        <ele>278.3</ele>
      </trkpt>
      <trkpt lat="43.21063" lon="5.56462">
        <ele>279.7</ele>
      </trkpt>
      <trkpt lat="43.21089" lon="5.56471">
        <ele>283.9</ele>
      </trkpt>
      <trkpt lat="43.21091" lon="5.56471">
        <ele>284</ele>
      </trkpt>
      <trkpt lat="43.21095" lon="5.56472">
        <ele>284.3</ele>
      </trkpt>
      <trkpt lat="43.21097" lon="5.56472">
        <ele>284.6</ele>
      </trkpt>
      <trkpt lat="43.21099" lon="5.56471">
        <ele>284.9</ele>
      </trkpt>
      <trkpt lat="43.21102" lon="5.56469">
        <ele>285.4</ele>
      </trkpt>
      <trkpt lat="43.21104" lon="5.56467">
        <ele>286</ele>
      </trkpt>
      <trkpt lat="43.21105" lon="5.56464">
        <ele>286.6</ele>
      </trkpt>
      <trkpt lat="43.21106" lon="5.5646">
        <ele>287.3</ele>
      </trkpt>
      <trkpt lat="43.21108" lon="5.5645">
        <ele>289</ele>
      </trkpt>
      <trkpt lat="43.21114" lon="5.56415">
        <ele>294.5</ele>
      </trkpt>
      <trkpt lat="43.21124" lon="5.56364">
        <ele>300.1</ele>
      </trkpt>
      <trkpt lat="43.21125" lon="5.56353">
        <ele>300.9</ele>
      </trkpt>
      <trkpt lat="43.21125" lon="5.5635">
        <ele>301.1</ele>
        <extensions>
          <visugpx:TrkExtension xmlns:visugpx="https://www.visugpx.com/editgpx/">
            <visugpx:node>1</visugpx:node>
            </visugpx:TrkExtension>
        </extensions>
      </trkpt>
      <trkpt lat="43.21126" lon="5.56342">
        <ele>301.9</ele>
      </trkpt>
      <trkpt lat="43.21125" lon="5.56333">
        <ele>302.9</ele>
      </trkpt>
      <trkpt lat="43.21124" lon="5.56324">
        <ele>303.4</ele>
      </trkpt>
      <trkpt lat="43.21121" lon="5.56314">
        <ele>304.6</ele>
      </trkpt>
      <trkpt lat="43.21115" lon="5.56295">
        <ele>306.9</ele>
      </trkpt>
      <trkpt lat="43.21112" lon="5.56287">
        <ele>308.3</ele>
      </trkpt>
      <trkpt lat="43.2111" lon="5.56283">
        <ele>309.1</ele>
      </trkpt>
      <trkpt lat="43.21107" lon="5.56281">
        <ele>309.7</ele>
      </trkpt>
      <trkpt lat="43.21104" lon="5.56279">
        <ele>310.4</ele>
      </trkpt>
      <trkpt lat="43.21102" lon="5.56279">
        <ele>310.9</ele>
      </trkpt>
      <trkpt lat="43.21099" lon="5.56279">
        <ele>311.5</ele>
      </trkpt>
      <trkpt lat="43.21103" lon="5.56252">
        <ele>310.7</ele>
      </trkpt>
      <trkpt lat="43.21109" lon="5.56224">
        <ele>309.5</ele>
      </trkpt>
      <trkpt lat="43.21118" lon="5.56202">
        <ele>308.3</ele>
      </trkpt>
      <trkpt lat="43.21128" lon="5.56187">
        <ele>306.4</ele>
      </trkpt>
      <trkpt lat="43.2114" lon="5.56175">
        <ele>304.6</ele>
      </trkpt>
      <trkpt lat="43.21152" lon="5.56167">
        <ele>304</ele>
      </trkpt>
      <trkpt lat="43.21167" lon="5.56162">
        <ele>302.8</ele>
      </trkpt>
      <trkpt lat="43.21208" lon="5.56179">
        <ele>302.3</ele>
      </trkpt>
      <trkpt lat="43.21249" lon="5.56202">
        <ele>300.2</ele>
      </trkpt>
      <trkpt lat="43.21291" lon="5.56228">
        <ele>299.3</ele>
      </trkpt>
      <trkpt lat="43.21327" lon="5.56265">
        <ele>302.4</ele>
      </trkpt>
      <trkpt lat="43.21338" lon="5.56315">
        <ele>303.2</ele>
      </trkpt>
      <trkpt lat="43.21345" lon="5.56352">
        <ele>304.9</ele>
      </trkpt>
      <trkpt lat="43.21351" lon="5.564">
        <ele>305.6</ele>
        <extensions>
          <visugpx:TrkExtension xmlns:visugpx="https://www.visugpx.com/editgpx/">
            <visugpx:node>2</visugpx:node>
            </visugpx:TrkExtension>
        </extensions>
      </trkpt>
      <trkpt lat="43.21354" lon="5.5642">
        <ele>305.6</ele>
      </trkpt>
      <trkpt lat="43.2137" lon="5.56443">
        <ele>307.6</ele>
      </trkpt>
      <trkpt lat="43.21402" lon="5.56454">
        <ele>309.3</ele>
      </trkpt>
      <trkpt lat="43.21421" lon="5.56465">
        <ele>308.6</ele>
      </trkpt>
      <trkpt lat="43.21453" lon="5.56601">
        <ele>308.1</ele>
      </trkpt>
      <trkpt lat="43.21457" lon="5.56701">
        <ele>305</ele>
      </trkpt>
      <trkpt lat="43.21475" lon="5.5674">
        <ele>305.4</ele>
      </trkpt>
      <trkpt lat="43.21517" lon="5.56783">
        <ele>304.1</ele>
      </trkpt>
      <trkpt lat="43.2155" lon="5.56826">
        <ele>303.1</ele>
      </trkpt>
      <trkpt lat="43.21585" lon="5.56889">
        <ele>301.2</ele>
      </trkpt>
      <trkpt lat="43.21591" lon="5.56931">
        <ele>300.4</ele>
      </trkpt>
      <trkpt lat="43.21588" lon="5.56979">
        <ele>297.5</ele>
      </trkpt>
      <trkpt lat="43.21573" lon="5.57041">
        <ele>293.2</ele>
      </trkpt>
      <trkpt lat="43.21564" lon="5.57058">
        <ele>291.9</ele>
      </trkpt>
      <trkpt lat="43.21551" lon="5.57082">
        <ele>288.9</ele>
      </trkpt>
      <trkpt lat="43.21528" lon="5.57105">
        <ele>286.4</ele>
      </trkpt>
      <trkpt lat="43.21495" lon="5.57129">
        <ele>283.1</ele>
      </trkpt>
      <trkpt lat="43.21453" lon="5.57168">
        <ele>278.7</ele>
      </trkpt>
      <trkpt lat="43.21425" lon="5.57185">
        <ele>276.8</ele>
      </trkpt>
      <trkpt lat="43.21412" lon="5.57185">
        <ele>276.9</ele>
        <extensions>
          <visugpx:TrkExtension xmlns:visugpx="https://www.visugpx.com/editgpx/">
            <visugpx:node>3</visugpx:node>
            </visugpx:TrkExtension>
        </extensions>
      </trkpt>
      <trkpt lat="43.21397" lon="5.57185">
        <ele>276.2</ele>
      </trkpt>
      <trkpt lat="43.21402" lon="5.57198">
        <ele>272.9</ele>
      </trkpt>
      <trkpt lat="43.21429" lon="5.57208">
        <ele>271.7</ele>
      </trkpt>
      <trkpt lat="43.21452" lon="5.57206">
        <ele>270.5</ele>
      </trkpt>
      <trkpt lat="43.21494" lon="5.57188">
        <ele>268.7</ele>
      </trkpt>
      <trkpt lat="43.21539" lon="5.57189">
        <ele>266.4</ele>
      </trkpt>
      <trkpt lat="43.21578" lon="5.57211">
        <ele>262.3</ele>
      </trkpt>
      <trkpt lat="43.21581" lon="5.57213">
        <ele>262.2</ele>
      </trkpt>
      <trkpt lat="43.21598" lon="5.57215">
        <ele>259.6</ele>
      </trkpt>
      <trkpt lat="43.21613" lon="5.57202">
        <ele>259</ele>
      </trkpt>
      <trkpt lat="43.21634" lon="5.5717">
        <ele>257.2</ele>
      </trkpt>
      <trkpt lat="43.21655" lon="5.5714">
        <ele>254.7</ele>
      </trkpt>
      <trkpt lat="43.21696" lon="5.57108">
        <ele>251.1</ele>
      </trkpt>
      <trkpt lat="43.21718" lon="5.57086">
        <ele>249.7</ele>
      </trkpt>
      <trkpt lat="43.21726" lon="5.57071">
        <ele>248.6</ele>
      </trkpt>
      <trkpt lat="43.21739" lon="5.57077">
        <ele>247</ele>
      </trkpt>
      <trkpt lat="43.21761" lon="5.57095">
        <ele>245.8</ele>
      </trkpt>
      <trkpt lat="43.21772" lon="5.57109">
        <ele>245</ele>
      </trkpt>
      <trkpt lat="43.21776" lon="5.57124">
        <ele>244.4</ele>
      </trkpt>
      <trkpt lat="43.21773" lon="5.57134">
        <ele>243.4</ele>
      </trkpt>
      <trkpt lat="43.21761" lon="5.57161">
        <ele>240.5</ele>
      </trkpt>
      <trkpt lat="43.21752" lon="5.57179">
        <ele>238.5</ele>
        <extensions>
          <visugpx:TrkExtension xmlns:visugpx="https://www.visugpx.com/editgpx/">
            <visugpx:node>4</visugpx:node>
            </visugpx:TrkExtension>
        </extensions>
      </trkpt>
      <trkpt lat="43.21749" lon="5.57185">
        <ele>237.9</ele>
      </trkpt>
      <trkpt lat="43.21741" lon="5.572">
        <ele>236.9</ele>
      </trkpt>
      <trkpt lat="43.21735" lon="5.5721">
        <ele>236.2</ele>
      </trkpt>
      <trkpt lat="43.21729" lon="5.57218">
        <ele>235.2</ele>
      </trkpt>
      <trkpt lat="43.21723" lon="5.57223">
        <ele>234.1</ele>
      </trkpt>
      <trkpt lat="43.21716" lon="5.57231">
        <ele>233.4</ele>
      </trkpt>
      <trkpt lat="43.21707" lon="5.5724">
        <ele>232.3</ele>
      </trkpt>
      <trkpt lat="43.21702" lon="5.57249">
        <ele>231.3</ele>
      </trkpt>
      <trkpt lat="43.21694" lon="5.57268">
        <ele>230.7</ele>
      </trkpt>
      <trkpt lat="43.21688" lon="5.57285">
        <ele>230.6</ele>
      </trkpt>
      <trkpt lat="43.21684" lon="5.57298">
        <ele>229.8</ele>
      </trkpt>
      <trkpt lat="43.2168" lon="5.5731">
        <ele>228.9</ele>
      </trkpt>
      <trkpt lat="43.21676" lon="5.57321">
        <ele>228.1</ele>
      </trkpt>
      <trkpt lat="43.21669" lon="5.57333">
        <ele>226.6</ele>
      </trkpt>
      <trkpt lat="43.21662" lon="5.57347">
        <ele>226.3</ele>
      </trkpt>
      <trkpt lat="43.21655" lon="5.5736">
        <ele>225.7</ele>
      </trkpt>
      <trkpt lat="43.21648" lon="5.57377">
        <ele>224.6</ele>
      </trkpt>
      <trkpt lat="43.21643" lon="5.57391">
        <ele>222.8</ele>
      </trkpt>
      <trkpt lat="43.21638" lon="5.57406">
        <ele>221.5</ele>
      </trkpt>
      <trkpt lat="43.2163" lon="5.57426">
        <ele>221.3</ele>
      </trkpt>
      <trkpt lat="43.21623" lon="5.57444">
        <ele>219.7</ele>
      </trkpt>
      <trkpt lat="43.21615" lon="5.57458">
        <ele>217.7</ele>
      </trkpt>
      <trkpt lat="43.21609" lon="5.57468">
        <ele>216.3</ele>
      </trkpt>
      <trkpt lat="43.21598" lon="5.57482">
        <ele>215.7</ele>
      </trkpt>
      <trkpt lat="43.21573" lon="5.5751">
        <ele>213.7</ele>
      </trkpt>
      <trkpt lat="43.21555" lon="5.57531">
        <ele>210.3</ele>
      </trkpt>
      <trkpt lat="43.21542" lon="5.57547">
        <ele>210.3</ele>
      </trkpt>
      <trkpt lat="43.21528" lon="5.57566">
        <ele>207.8</ele>
      </trkpt>
      <trkpt lat="43.21518" lon="5.57587">
        <ele>207.7</ele>
      </trkpt>
      <trkpt lat="43.21508" lon="5.57605">
        <ele>206.6</ele>
      </trkpt>
      <trkpt lat="43.21497" lon="5.57622">
        <ele>205.5</ele>
      </trkpt>
      <trkpt lat="43.21467" lon="5.57631">
        <ele>203.7</ele>
      </trkpt>
      <trkpt lat="43.2145" lon="5.57626">
        <ele>202.4</ele>
      </trkpt>
      <trkpt lat="43.2145" lon="5.57626">
        <ele>202.3</ele>
        <extensions>
          <visugpx:TrkExtension xmlns:visugpx="https://www.visugpx.com/editgpx/">
            <visugpx:node>5</visugpx:node>
            </visugpx:TrkExtension>
        </extensions>
      </trkpt>
      <trkpt lat="43.21443" lon="5.5762">
        <ele>201.3</ele>
      </trkpt>
      <trkpt lat="43.21409" lon="5.57559">
        <ele>197</ele>
      </trkpt>
      <trkpt lat="43.21402" lon="5.57553">
        <ele>196.1</ele>
      </trkpt>
      <trkpt lat="43.21398" lon="5.5755">
        <ele>196</ele>
      </trkpt>
      <trkpt lat="43.21376" lon="5.57538">
        <ele>195.7</ele>
      </trkpt>
      <trkpt lat="43.21352" lon="5.57529">
        <ele>193.4</ele>
      </trkpt>
      <trkpt lat="43.21343" lon="5.57529">
        <ele>192.7</ele>
      </trkpt>
      <trkpt lat="43.21332" lon="5.57534">
        <ele>192.1</ele>
      </trkpt>
      <trkpt lat="43.21297" lon="5.57559">
        <ele>190.2</ele>
      </trkpt>
      <trkpt lat="43.21284" lon="5.57574">
        <ele>188.7</ele>
      </trkpt>
      <trkpt lat="43.21276" lon="5.57586">
        <ele>186.4</ele>
      </trkpt>
      <trkpt lat="43.21268" lon="5.5762">
        <ele>186.1</ele>
      </trkpt>
      <trkpt lat="43.21261" lon="5.57637">
        <ele>184.7</ele>
      </trkpt>
      <trkpt lat="43.2125" lon="5.57652">
        <ele>183</ele>
      </trkpt>
      <trkpt lat="43.21241" lon="5.57657">
        <ele>182.3</ele>
      </trkpt>
      <trkpt lat="43.2122" lon="5.57659">
        <ele>180.3</ele>
      </trkpt>
      <trkpt lat="43.21211" lon="5.57664">
        <ele>179.2</ele>
      </trkpt>
      <trkpt lat="43.21198" lon="5.57675">
        <ele>178.9</ele>
      </trkpt>
      <trkpt lat="43.21187" lon="5.57675">
        <ele>178.6</ele>
      </trkpt>
      <trkpt lat="43.2118" lon="5.57671">
        <ele>178.1</ele>
      </trkpt>
      <trkpt lat="43.21169" lon="5.57648">
        <ele>176.2</ele>
      </trkpt>
      <trkpt lat="43.2116" lon="5.5764">
        <ele>174.6</ele>
      </trkpt>
      <trkpt lat="43.21155" lon="5.57638">
        <ele>174.3</ele>
      </trkpt>
      <trkpt lat="43.21111" lon="5.57645">
        <ele>171.6</ele>
      </trkpt>
      <trkpt lat="43.21098" lon="5.5765">
        <ele>171.7</ele>
      </trkpt>
      <trkpt lat="43.21077" lon="5.57676">
        <ele>169.2</ele>
      </trkpt>
      <trkpt lat="43.21069" lon="5.5768">
        <ele>169.4</ele>
      </trkpt>
      <trkpt lat="43.21055" lon="5.57673">
        <ele>167.1</ele>
      </trkpt>
      <trkpt lat="43.21041" lon="5.57643">
        <ele>167.7</ele>
      </trkpt>
      <trkpt lat="43.21039" lon="5.57633">
        <ele>167.2</ele>
      </trkpt>
      <trkpt lat="43.21051" lon="5.57599">
        <ele>164.1</ele>
      </trkpt>
      <trkpt lat="43.21051" lon="5.57586">
        <ele>163.6</ele>
      </trkpt>
      <trkpt lat="43.2102" lon="5.57531">
        <ele>159.9</ele>
      </trkpt>
      <trkpt lat="43.21008" lon="5.57518">
        <ele>159.5</ele>
      </trkpt>
      <trkpt lat="43.20997" lon="5.57512">
        <ele>158.2</ele>
      </trkpt>
      <trkpt lat="43.20979" lon="5.57508">
        <ele>156.5</ele>
      </trkpt>
      <trkpt lat="43.20957" lon="5.57511">
        <ele>156</ele>
      </trkpt>
      <trkpt lat="43.2095" lon="5.57509">
        <ele>155.4</ele>
      </trkpt>
      <trkpt lat="43.20944" lon="5.57498">
        <ele>153.1</ele>
      </trkpt>
      <trkpt lat="43.20934" lon="5.57472">
        <ele>152.3</ele>
      </trkpt>
      <trkpt lat="43.2092" lon="5.57459">
        <ele>152.2</ele>
      </trkpt>
      <trkpt lat="43.20915" lon="5.57458">
        <ele>152</ele>
      </trkpt>
      <trkpt lat="43.20896" lon="5.57461">
        <ele>151.5</ele>
      </trkpt>
      <trkpt lat="43.20867" lon="5.57452">
        <ele>148.7</ele>
      </trkpt>
      <trkpt lat="43.20858" lon="5.57454">
        <ele>148.5</ele>
      </trkpt>
      <trkpt lat="43.2085" lon="5.5746">
        <ele>149</ele>
      </trkpt>
      <trkpt lat="43.20839" lon="5.57489">
        <ele>146.7</ele>
      </trkpt>
      <trkpt lat="43.20833" lon="5.57499">
        <ele>144.2</ele>
      </trkpt>
      <trkpt lat="43.20822" lon="5.57509">
        <ele>145.2</ele>
      </trkpt>
      <trkpt lat="43.20778" lon="5.57537">
        <ele>142</ele>
      </trkpt>
      <trkpt lat="43.20736" lon="5.57551">
        <ele>138.1</ele>
      </trkpt>
      <trkpt lat="43.20702" lon="5.57577">
        <ele>136.8</ele>
      </trkpt>
      <trkpt lat="43.20691" lon="5.57579">
        <ele>136.5</ele>
      </trkpt>
      <trkpt lat="43.20691" lon="5.57579">
        <ele>136.6</ele>
        <extensions>
          <visugpx:TrkExtension xmlns:visugpx="https://www.visugpx.com/editgpx/">
            <visugpx:node>6</visugpx:node>
            </visugpx:TrkExtension>
        </extensions>
      </trkpt>
    </trkseg>
  </trk>
  <trk>
    <name><![CDATA[autorisé 4]]></name>
    <extensions>
      <line xmlns="http://www.topografix.com/GPX/gpx_style/0/2">
        <color>00ffff</color>
        <opacity>1</opacity>
        <width>6</width>
          <extensions>
            <jonction>1</jonction>
          </extensions>
      </line>
    </extensions>
    <trkseg>
      <trkpt lat="43.22202" lon="5.5794">
        <ele>204</ele>
      </trkpt>
      <trkpt lat="43.22202" lon="5.5793">
        <ele>204.6</ele>
      </trkpt>
      <trkpt lat="43.22202" lon="5.57928">
        <ele>204.7</ele>
      </trkpt>
      <trkpt lat="43.22205" lon="5.57908">
        <ele>205.9</ele>
      </trkpt>
      <trkpt lat="43.22208" lon="5.57882">
        <ele>207.6</ele>
      </trkpt>
      <trkpt lat="43.2222" lon="5.57868">
        <ele>207.8</ele>
      </trkpt>
      <trkpt lat="43.22226" lon="5.57859">
        <ele>208.1</ele>
      </trkpt>
      <trkpt lat="43.22228" lon="5.57852">
        <ele>208.2</ele>
      </trkpt>
      <trkpt lat="43.22227" lon="5.57847">
        <ele>208.6</ele>
      </trkpt>
      <trkpt lat="43.22203" lon="5.57814">
        <ele>211.2</ele>
      </trkpt>
      <trkpt lat="43.22178" lon="5.5779">
        <ele>215.2</ele>
      </trkpt>
      <trkpt lat="43.22172" lon="5.57782">
        <ele>215.9</ele>
      </trkpt>
      <trkpt lat="43.22162" lon="5.57769">
        <ele>218.5</ele>
      </trkpt>
      <trkpt lat="43.22152" lon="5.57758">
        <ele>220</ele>
      </trkpt>
      <trkpt lat="43.22061" lon="5.57731">
        <ele>235.5</ele>
      </trkpt>
      <trkpt lat="43.22053" lon="5.57724">
        <ele>236.8</ele>
      </trkpt>
      <trkpt lat="43.22051" lon="5.57716">
        <ele>238.4</ele>
      </trkpt>
      <trkpt lat="43.22051" lon="5.57705">
        <ele>239.7</ele>
      </trkpt>
      <trkpt lat="43.22056" lon="5.57699">
        <ele>239.3</ele>
      </trkpt>
      <trkpt lat="43.22085" lon="5.57683">
        <ele>242.7</ele>
      </trkpt>
      <trkpt lat="43.2209" lon="5.57677">
        <ele>243.9</ele>
      </trkpt>
      <trkpt lat="43.2209" lon="5.57673">
        <ele>244.8</ele>
      </trkpt>
      <trkpt lat="43.22088" lon="5.57668">
        <ele>246.1</ele>
      </trkpt>
      <trkpt lat="43.22086" lon="5.57666">
        <ele>247</ele>
      </trkpt>
      <trkpt lat="43.22075" lon="5.57665">
        <ele>247.8</ele>
      </trkpt>
      <trkpt lat="43.22055" lon="5.57659">
        <ele>249.2</ele>
      </trkpt>
      <trkpt lat="43.22041" lon="5.57655">
        <ele>253</ele>
      </trkpt>
      <trkpt lat="43.22037" lon="5.57656">
        <ele>253.8</ele>
        <extensions>
          <visugpx:TrkExtension xmlns:visugpx="https://www.visugpx.com/editgpx/">
            <visugpx:node>1</visugpx:node>
            </visugpx:TrkExtension>
        </extensions>
      </trkpt>
      <trkpt lat="43.22031" lon="5.57658">
        <ele>254.8</ele>
      </trkpt>
      <trkpt lat="43.22022" lon="5.57667">
        <ele>254.4</ele>
      </trkpt>
      <trkpt lat="43.22016" lon="5.57675">
        <ele>254.1</ele>
      </trkpt>
      <trkpt lat="43.22013" lon="5.57687">
        <ele>253.2</ele>
      </trkpt>
      <trkpt lat="43.22007" lon="5.57707">
        <ele>252.7</ele>
      </trkpt>
      <trkpt lat="43.22004" lon="5.57734">
        <ele>251.9</ele>
      </trkpt>
      <trkpt lat="43.22003" lon="5.57743">
        <ele>251.7</ele>
      </trkpt>
      <trkpt lat="43.21999" lon="5.57744">
        <ele>252.3</ele>
      </trkpt>
      <trkpt lat="43.21994" lon="5.57737">
        <ele>252.6</ele>
      </trkpt>
      <trkpt lat="43.21991" lon="5.57731">
        <ele>253</ele>
      </trkpt>
      <trkpt lat="43.21991" lon="5.57723">
        <ele>253.6</ele>
      </trkpt>
      <trkpt lat="43.21996" lon="5.57686">
        <ele>256.9</ele>
      </trkpt>
      <trkpt lat="43.21994" lon="5.57676">
        <ele>258.2</ele>
      </trkpt>
      <trkpt lat="43.2199" lon="5.5767">
        <ele>259</ele>
      </trkpt>
      <trkpt lat="43.21981" lon="5.57665">
        <ele>259.9</ele>
      </trkpt>
      <trkpt lat="43.21955" lon="5.57653">
        <ele>261.8</ele>
      </trkpt>
      <trkpt lat="43.21924" lon="5.5764">
        <ele>263.9</ele>
      </trkpt>
      <trkpt lat="43.21903" lon="5.57632">
        <ele>263.4</ele>
      </trkpt>
      <trkpt lat="43.21885" lon="5.57624">
        <ele>262</ele>
      </trkpt>
      <trkpt lat="43.21865" lon="5.57616">
        <ele>259.8</ele>
      </trkpt>
      <trkpt lat="43.21829" lon="5.57611">
        <ele>255.4</ele>
      </trkpt>
      <trkpt lat="43.21812" lon="5.5761">
        <ele>253</ele>
      </trkpt>
      <trkpt lat="43.21803" lon="5.57613">
        <ele>251.6</ele>
      </trkpt>
      <trkpt lat="43.21794" lon="5.57618">
        <ele>250.4</ele>
      </trkpt>
      <trkpt lat="43.21779" lon="5.57632">
        <ele>247.8</ele>
      </trkpt>
      <trkpt lat="43.21766" lon="5.57651">
        <ele>245.7</ele>
      </trkpt>
      <trkpt lat="43.2175" lon="5.57685">
        <ele>241</ele>
      </trkpt>
      <trkpt lat="43.21742" lon="5.57693">
        <ele>239.6</ele>
        <extensions>
          <visugpx:TrkExtension xmlns:visugpx="https://www.visugpx.com/editgpx/">
            <visugpx:node>2</visugpx:node>
            </visugpx:TrkExtension>
        </extensions>
      </trkpt>
      <trkpt lat="43.2174" lon="5.57695">
        <ele>239.3</ele>
      </trkpt>
      <trkpt lat="43.2173" lon="5.57699">
        <ele>237.9</ele>
      </trkpt>
      <trkpt lat="43.21602" lon="5.57668">
        <ele>221.4</ele>
      </trkpt>
      <trkpt lat="43.21546" lon="5.57657">
        <ele>213.5</ele>
      </trkpt>
      <trkpt lat="43.21531" lon="5.57654">
        <ele>211.4</ele>
      </trkpt>
      <trkpt lat="43.21519" lon="5.57654">
        <ele>209.7</ele>
      </trkpt>
      <trkpt lat="43.21505" lon="5.57655">
        <ele>207.7</ele>
      </trkpt>
      <trkpt lat="43.21493" lon="5.57656">
        <ele>206.5</ele>
      </trkpt>
      <trkpt lat="43.21478" lon="5.57657">
        <ele>205.4</ele>
      </trkpt>
      <trkpt lat="43.21484" lon="5.57643">
        <ele>205.9</ele>
      </trkpt>
      <trkpt lat="43.21497" lon="5.57622">
        <ele>205.5</ele>
      </trkpt>
      <trkpt lat="43.21482" lon="5.57627">
        <ele>204.2</ele>
        <extensions>
          <visugpx:TrkExtension xmlns:visugpx="https://www.visugpx.com/editgpx/">
            <visugpx:node>3</visugpx:node>
            </visugpx:TrkExtension>
        </extensions>
      </trkpt>
    </trkseg>
  </trk>
</gpx>